GTI512 KLAX-LTAI
Flight info
| Callsign | GTI512 |
|---|---|
| Flight time | 12h 42m |
| Altitude | 31000 |
| Route | ORCKA5 HAILO DCT ILC DCT OGD DCT KOXMY DCT MUTUR DCT YTH/N0497F330 Q827 YYQ J530 YZS J540 YTE DCT SAVAT DCT YXP/M085F330 DCT NYGAR DCT 68N050W 68N040W/M085F350 68N030W 67N020W 65N010W DCT ISVIG/N0484F350 DCT RETKA DCT SONAL/N0483F370 M602 BINKA DCT BABKO DCT DEMOP DCT PARAK DCT DONIV DCT ETIDA DCT GERGI L614 ADORU L606 ATVEP UG80 EKI UL606 CRD UL854 KOZLU |
| Aircraft | B748/H-SDE3FGHIM1M2RWXY/LB1 |
Departure
| Time | 2026-04-25 17:02 |
|---|---|
| Airport | Los Angeles International Airport (KLAX) |
Arrival
| Time | 2026-04-26 05:44 |
|---|---|
| Airport | Antalya International Airport (LTAI) |
| Time | Latitude | Longitude | Altitude | Speed | Heading |
|---|---|---|---|---|---|
| 2026-04-25 16:57 | 33.93477 | -118.39598 | 139 ft | 19 kts | 83° |
| 2026-04-25 16:58 | 33.93492 | -118.39447 | 139 ft | 18 kts | 83° |
| 2026-04-25 16:58 | 33.93507 | -118.39304 | 139 ft | 17 kts | 83° |
| 2026-04-25 16:58 | 33.93521 | -118.39168 | 139 ft | 16 kts | 83° |
| 2026-04-25 16:58 | 33.93537 | -118.39020 | 139 ft | 19 kts | 83° |
| 2026-04-25 16:59 | 33.93553 | -118.38869 | 139 ft | 18 kts | 83° |
| 2026-04-25 16:59 | 33.93567 | -118.38725 | 139 ft | 17 kts | 83° |
| 2026-04-25 16:59 | 33.93581 | -118.38589 | 139 ft | 16 kts | 83° |
| 2026-04-25 16:59 | 33.93595 | -118.38460 | 139 ft | 15 kts | 83° |
| 2026-04-25 17:00 | 33.93607 | -118.38340 | 139 ft | 14 kts | 83° |
| 2026-04-25 17:00 | 33.93631 | -118.38290 | 139 ft | 6 kts | 20° |
| 2026-04-25 17:00 | 33.93675 | -118.38291 | 139 ft | 6 kts | 352° |
| 2026-04-25 17:00 | 33.93717 | -118.38299 | 139 ft | 6 kts | 340° |
| 2026-04-25 17:01 | 33.93730 | -118.38341 | 139 ft | 6 kts | 264° |
| 2026-04-25 17:01 | 33.93719 | -118.38472 | 139 ft | 37 kts | 262° |
| 2026-04-25 17:01 | 33.93661 | -118.39023 | 139 ft | 95 kts | 263° |
| 2026-04-25 17:01 | 33.93557 | -118.40039 | 140 ft | 149 kts | 263° |
| 2026-04-25 17:02 | 33.93411 | -118.41463 | 174 ft | 189 kts | 263° |
| 2026-04-25 17:02 | 33.93250 | -118.43057 | 729 ft | 189 kts | 262° |
| 2026-04-25 17:02 | 33.93087 | -118.44622 | 1464 ft | 192 kts | 262° |
| 2026-04-25 17:02 | 33.92902 | -118.46236 | 1956 ft | 197 kts | 258° |
| 2026-04-25 17:03 | 33.92521 | -118.47869 | 2053 ft | 210 kts | 251° |
| 2026-04-25 17:03 | 33.92005 | -118.49571 | 2132 ft | 224 kts | 249° |
| 2026-04-25 17:03 | 33.91420 | -118.51371 | 2250 ft | 237 kts | 248° |
| 2026-04-25 17:03 | 33.90793 | -118.53257 | 2452 ft | 248 kts | 248° |
| 2026-04-25 17:04 | 33.90141 | -118.55235 | 2656 ft | 259 kts | 247° |
| 2026-04-25 17:04 | 33.89466 | -118.57277 | 3034 ft | 265 kts | 248° |
| 2026-04-25 17:04 | 33.88769 | -118.59379 | 3339 ft | 277 kts | 248° |
| 2026-04-25 17:04 | 33.88043 | -118.61557 | 3784 ft | 284 kts | 248° |
| 2026-04-25 17:05 | 33.87300 | -118.63777 | 4365 ft | 289 kts | 248° |
| 2026-04-25 17:05 | 33.85765 | -118.68343 | 5507 ft | 298 kts | 248° |
| 2026-04-25 17:05 | 33.84983 | -118.70670 | 6121 ft | 302 kts | 247° |
| 2026-04-25 17:06 | 33.83947 | -118.72869 | 6707 ft | 305 kts | 229° |
| 2026-04-25 17:06 | 33.82258 | -118.74398 | 7299 ft | 308 kts | 206° |
| 2026-04-25 17:06 | 33.80165 | -118.74984 | 7889 ft | 314 kts | 182° |
| 2026-04-25 17:06 | 33.78006 | -118.74519 | 8443 ft | 321 kts | 160° |
| 2026-04-25 17:07 | 33.76123 | -118.73053 | 8992 ft | 328 kts | 137° |
| 2026-04-25 17:07 | 33.74809 | -118.70789 | 9527 ft | 336 kts | 116° |
| 2026-04-25 17:07 | 33.74270 | -118.68045 | 10025 ft | 344 kts | 94° |
| 2026-04-25 17:07 | 33.74576 | -118.65162 | 10318 ft | 358 kts | 73° |
| 2026-04-25 17:08 | 33.75700 | -118.62475 | 10458 ft | 374 kts | 55° |
| 2026-04-25 17:08 | 33.77472 | -118.60041 | 10582 ft | 391 kts | 41° |
| 2026-04-25 17:08 | 33.79531 | -118.57865 | 10713 ft | 409 kts | 40° |
| 2026-04-25 17:08 | 33.81737 | -118.55586 | 10849 ft | 427 kts | 39° |
| 2026-04-25 17:09 | 33.84016 | -118.53220 | 11218 ft | 437 kts | 39° |
| 2026-04-25 17:09 | 33.86337 | -118.50798 | 11700 ft | 445 kts | 39° |
| 2026-04-25 17:09 | 33.88689 | -118.48339 | 12205 ft | 452 kts | 39° |
| 2026-04-25 17:09 | 33.91072 | -118.45843 | 12783 ft | 456 kts | 40° |
| 2026-04-25 17:10 | 33.93327 | -118.43117 | 13306 ft | 463 kts | 47° |
| 2026-04-25 17:10 | 33.95308 | -118.40028 | 13848 ft | 470 kts | 54° |
| 2026-04-25 17:10 | 33.97095 | -118.36709 | 14348 ft | 475 kts | 57° |
| 2026-04-25 17:10 | 33.98919 | -118.33354 | 14837 ft | 480 kts | 55° |
| 2026-04-25 17:11 | 34.00726 | -118.30157 | 15398 ft | 483 kts | 54° |
| 2026-04-25 17:11 | 34.02639 | -118.26819 | 15942 ft | 487 kts | 54° |
| 2026-04-25 17:11 | 34.04557 | -118.23439 | 16448 ft | 490 kts | 55° |
| 2026-04-25 17:11 | 34.06488 | -118.20023 | 16929 ft | 495 kts | 55° |
| 2026-04-25 17:12 | 34.08431 | -118.16580 | 17404 ft | 499 kts | 55° |
| 2026-04-25 17:12 | 34.10391 | -118.13109 | 17888 ft | 503 kts | 55° |
| 2026-04-25 17:12 | 34.12366 | -118.09606 | 18356 ft | 507 kts | 55° |
| 2026-04-25 17:12 | 34.14355 | -118.06076 | 18780 ft | 511 kts | 55° |
| 2026-04-25 17:13 | 34.16363 | -118.02507 | 19211 ft | 516 kts | 55° |
| 2026-04-25 17:13 | 34.17044 | -118.01300 | 19359 ft | 517 kts | 54° |
| 2026-04-25 17:13 | 34.19756 | -117.96535 | 19929 ft | 522 kts | 55° |
| 2026-04-25 17:13 | 34.21809 | -117.92889 | 20341 ft | 527 kts | 55° |
| 2026-04-25 17:14 | 34.23869 | -117.89213 | 20751 ft | 531 kts | 55° |
| 2026-04-25 17:14 | 34.25944 | -117.85501 | 21176 ft | 534 kts | 55° |
| 2026-04-25 17:14 | 34.28030 | -117.81765 | 21563 ft | 539 kts | 55° |
| 2026-04-25 17:14 | 34.30132 | -117.77998 | 21939 ft | 543 kts | 55° |
| 2026-04-25 17:15 | 34.32251 | -117.74200 | 22324 ft | 546 kts | 55° |
| 2026-04-25 17:15 | 34.34400 | -117.70403 | 22701 ft | 549 kts | 53° |
| 2026-04-25 17:15 | 34.36781 | -117.66770 | 23091 ft | 551 kts | 49° |
| 2026-04-25 17:15 | 34.39329 | -117.63283 | 23435 ft | 555 kts | 46° |
| 2026-04-25 17:16 | 34.41969 | -117.59853 | 23768 ft | 558 kts | 45° |
| 2026-04-25 17:16 | 34.44622 | -117.56401 | 24121 ft | 561 kts | 46° |
| 2026-04-25 17:16 | 34.47268 | -117.52911 | 24518 ft | 563 kts | 46° |
| 2026-04-25 17:16 | 34.49903 | -117.49408 | 25025 ft | 562 kts | 46° |
| 2026-04-25 17:17 | 34.52529 | -117.45903 | 25576 ft | 559 kts | 46° |
| 2026-04-25 17:17 | 34.55136 | -117.42416 | 26116 ft | 557 kts | 46° |
| 2026-04-25 17:17 | 34.57739 | -117.38931 | 26518 ft | 558 kts | 46° |
| 2026-04-25 17:17 | 34.60353 | -117.35462 | 26955 ft | 556 kts | 46° |
| 2026-04-25 17:18 | 34.62957 | -117.31996 | 27406 ft | 555 kts | 46° |
| 2026-04-25 17:18 | 34.65554 | -117.28524 | 27766 ft | 555 kts | 46° |
| 2026-04-25 17:18 | 34.68152 | -117.25072 | 28147 ft | 554 kts | 46° |
| 2026-04-25 17:18 | 34.70739 | -117.21611 | 28513 ft | 553 kts | 46° |
| 2026-04-25 17:19 | 34.73314 | -117.18145 | 28849 ft | 552 kts | 46° |
| 2026-04-25 17:19 | 34.75888 | -117.14671 | 29150 ft | 552 kts | 46° |
| 2026-04-25 17:19 | 34.78453 | -117.11204 | 29475 ft | 551 kts | 46° |
| 2026-04-25 17:19 | 34.81012 | -117.07742 | 29748 ft | 551 kts | 46° |
| 2026-04-25 17:20 | 34.83577 | -117.04271 | 30029 ft | 550 kts | 46° |
| 2026-04-25 17:20 | 34.86103 | -117.00854 | 30280 ft | 550 kts | 46° |
| 2026-04-25 17:20 | 34.88663 | -116.97387 | 30466 ft | 551 kts | 46° |
| 2026-04-25 17:20 | 34.91273 | -116.93964 | 30694 ft | 551 kts | 45° |
| 2026-04-25 17:21 | 34.93879 | -116.90544 | 30839 ft | 550 kts | 45° |
| 2026-04-25 17:21 | 34.96462 | -116.87124 | 30853 ft | 545 kts | 45° |
| 2026-04-25 17:21 | 35.01560 | -116.80351 | 30863 ft | 540 kts | 45° |
| 2026-04-25 17:22 | 35.05779 | -116.74742 | 30862 ft | 540 kts | 45° |
| 2026-04-25 17:22 | 35.11718 | -116.66847 | 30862 ft | 540 kts | 45° |
| 2026-04-25 17:23 | 35.16787 | -116.60092 | 30861 ft | 539 kts | 45° |
| 2026-04-25 17:23 | 35.21845 | -116.53335 | 30861 ft | 539 kts | 45° |
| 2026-04-25 17:24 | 35.26895 | -116.46576 | 30861 ft | 538 kts | 45° |
| 2026-04-25 17:24 | 35.31954 | -116.39833 | 30861 ft | 538 kts | 45° |
| 2026-04-25 17:25 | 35.37016 | -116.33082 | 30862 ft | 538 kts | 45° |
| 2026-04-25 17:25 | 35.42057 | -116.26323 | 30863 ft | 537 kts | 45° |
| 2026-04-25 17:26 | 35.47101 | -116.19580 | 30863 ft | 536 kts | 45° |
| 2026-04-25 17:26 | 35.52118 | -116.12802 | 30853 ft | 536 kts | 46° |
| 2026-04-25 17:27 | 35.57128 | -116.06015 | 30847 ft | 536 kts | 46° |
| 2026-04-25 17:27 | 35.61300 | -116.00383 | 30842 ft | 536 kts | 42° |
| 2026-04-25 17:28 | 35.65212 | -115.96649 | 30841 ft | 532 kts | 29° |
| 2026-04-25 17:28 | 35.68396 | -115.94358 | 30845 ft | 528 kts | 25° |
| 2026-04-25 17:28 | 35.74950 | -115.90374 | 30842 ft | 524 kts | 20° |
| 2026-04-25 17:29 | 35.81517 | -115.86638 | 30841 ft | 523 kts | 20° |
| 2026-04-25 17:29 | 35.88106 | -115.82818 | 30841 ft | 523 kts | 21° |
| 2026-04-25 17:30 | 35.94689 | -115.78966 | 30818 ft | 524 kts | 21° |
| 2026-04-25 17:30 | 36.01280 | -115.75131 | 30830 ft | 523 kts | 21° |
| 2026-04-25 17:31 | 36.07855 | -115.71280 | 30835 ft | 523 kts | 21° |
| 2026-04-25 17:31 | 36.14430 | -115.67412 | 30823 ft | 523 kts | 21° |
| 2026-04-25 17:32 | 36.21000 | -115.63538 | 30809 ft | 523 kts | 21° |
| 2026-04-25 17:32 | 36.27571 | -115.59655 | 30807 ft | 523 kts | 21° |
| 2026-04-25 17:33 | 36.34134 | -115.55768 | 30809 ft | 523 kts | 21° |
| 2026-04-25 17:33 | 36.40700 | -115.51872 | 30812 ft | 523 kts | 21° |
| 2026-04-25 17:34 | 36.47262 | -115.47972 | 30821 ft | 523 kts | 21° |
| 2026-04-25 17:34 | 36.53825 | -115.44063 | 30822 ft | 523 kts | 21° |
| 2026-04-25 17:35 | 36.60391 | -115.40145 | 30824 ft | 524 kts | 21° |
| 2026-04-25 17:35 | 36.66960 | -115.36218 | 30822 ft | 523 kts | 21° |
| 2026-04-25 17:36 | 36.73517 | -115.32291 | 30822 ft | 523 kts | 21° |
| 2026-04-25 17:36 | 36.80072 | -115.28357 | 30821 ft | 523 kts | 20° |
| 2026-04-25 17:37 | 36.86641 | -115.24408 | 30821 ft | 523 kts | 20° |
| 2026-04-25 17:37 | 36.93186 | -115.20465 | 30821 ft | 523 kts | 20° |
| 2026-04-25 17:38 | 36.98630 | -115.17180 | 30811 ft | 523 kts | 20° |
| 2026-04-25 17:38 | 37.06240 | -115.12579 | 30810 ft | 522 kts | 20° |
| 2026-04-25 17:39 | 37.12778 | -115.08618 | 30815 ft | 522 kts | 20° |
| 2026-04-25 17:39 | 37.19320 | -115.04646 | 30819 ft | 522 kts | 20° |
| 2026-04-25 17:40 | 37.25858 | -115.00670 | 30825 ft | 522 kts | 20° |
| 2026-04-25 17:40 | 37.32399 | -114.96684 | 30842 ft | 522 kts | 20° |
| 2026-04-25 17:41 | 37.38924 | -114.92700 | 30851 ft | 521 kts | 20° |
| 2026-04-25 17:41 | 37.45447 | -114.88709 | 30853 ft | 521 kts | 20° |
| 2026-04-25 17:42 | 37.51974 | -114.84708 | 30854 ft | 521 kts | 20° |
| 2026-04-25 17:42 | 37.58495 | -114.80703 | 30862 ft | 521 kts | 20° |
| 2026-04-25 17:43 | 37.65011 | -114.76693 | 30864 ft | 521 kts | 20° |
| 2026-04-25 17:43 | 37.71529 | -114.72675 | 30867 ft | 521 kts | 21° |
| 2026-04-25 17:44 | 37.78048 | -114.68647 | 30867 ft | 522 kts | 21° |
| 2026-04-25 17:44 | 37.84528 | -114.64635 | 30868 ft | 522 kts | 20° |
| 2026-04-25 17:45 | 37.88885 | -114.61934 | 30871 ft | 522 kts | 20° |
| 2026-04-25 17:45 | 37.97565 | -114.56551 | 30875 ft | 522 kts | 20° |
| 2026-04-25 17:46 | 38.04087 | -114.52502 | 30878 ft | 522 kts | 20° |
| 2026-04-25 17:46 | 38.10599 | -114.48431 | 30882 ft | 522 kts | 20° |
| 2026-04-25 17:47 | 38.17111 | -114.44350 | 30885 ft | 522 kts | 20° |
| 2026-04-25 17:47 | 38.23628 | -114.40264 | 30888 ft | 522 kts | 20° |
| 2026-04-25 17:48 | 38.33175 | -114.33497 | 30913 ft | 525 kts | 25° |
| 2026-04-25 17:49 | 38.39482 | -114.28764 | 30913 ft | 526 kts | 25° |
| 2026-04-25 17:49 | 38.45787 | -114.24066 | 30916 ft | 525 kts | 25° |
| 2026-04-25 17:50 | 38.52098 | -114.19370 | 30919 ft | 525 kts | 25° |
| 2026-04-25 17:50 | 38.58423 | -114.14693 | 30919 ft | 525 kts | 24° |
| 2026-04-25 17:51 | 38.64747 | -114.10018 | 30918 ft | 525 kts | 24° |
| 2026-04-25 17:51 | 38.71061 | -114.05326 | 30919 ft | 525 kts | 24° |
| 2026-04-25 17:52 | 38.77377 | -114.00617 | 30919 ft | 526 kts | 24° |
| 2026-04-25 17:52 | 38.83694 | -113.95895 | 30917 ft | 525 kts | 24° |
| 2026-04-25 17:53 | 38.89961 | -113.91201 | 30918 ft | 525 kts | 24° |
| 2026-04-25 17:53 | 38.96267 | -113.86467 | 30919 ft | 525 kts | 24° |
| 2026-04-25 17:54 | 39.02568 | -113.81728 | 30920 ft | 525 kts | 24° |
| 2026-04-25 17:54 | 39.08874 | -113.76974 | 30922 ft | 526 kts | 24° |
| 2026-04-25 17:55 | 39.15181 | -113.72206 | 30918 ft | 525 kts | 24° |
| 2026-04-25 17:55 | 39.21482 | -113.67439 | 30923 ft | 525 kts | 24° |
| 2026-04-25 17:56 | 39.27788 | -113.62652 | 30921 ft | 526 kts | 24° |
| 2026-04-25 17:56 | 39.34089 | -113.57862 | 30931 ft | 525 kts | 24° |
| 2026-04-25 17:57 | 39.40381 | -113.53070 | 30938 ft | 525 kts | 23° |
| 2026-04-25 17:57 | 39.46678 | -113.48263 | 30939 ft | 525 kts | 24° |
| 2026-04-25 17:58 | 39.52971 | -113.43450 | 30941 ft | 525 kts | 23° |
| 2026-04-25 17:58 | 39.59264 | -113.38624 | 30944 ft | 526 kts | 24° |
| 2026-04-25 17:59 | 39.65560 | -113.33790 | 30946 ft | 525 kts | 23° |
| 2026-04-25 17:59 | 39.71834 | -113.28959 | 30941 ft | 524 kts | 23° |
| 2026-04-25 18:00 | 39.77047 | -113.24935 | 30944 ft | 525 kts | 24° |
| 2026-04-25 18:00 | 39.83322 | -113.20088 | 30944 ft | 524 kts | 24° |
| 2026-04-25 18:01 | 39.89583 | -113.15236 | 30946 ft | 524 kts | 24° |
| 2026-04-25 18:01 | 39.95849 | -113.10367 | 30949 ft | 525 kts | 24° |
| 2026-04-25 18:02 | 40.02113 | -113.05496 | 30943 ft | 524 kts | 24° |
| 2026-04-25 18:02 | 40.08366 | -113.00622 | 30947 ft | 523 kts | 24° |
| 2026-04-25 18:03 | 40.14614 | -112.95737 | 30949 ft | 523 kts | 24° |
| 2026-04-25 18:03 | 40.20853 | -112.90853 | 30950 ft | 522 kts | 24° |
| 2026-04-25 18:04 | 40.27090 | -112.85959 | 30945 ft | 523 kts | 24° |
| 2026-04-25 18:04 | 40.33329 | -112.81052 | 30951 ft | 523 kts | 24° |
| 2026-04-25 18:05 | 40.39568 | -112.76132 | 30949 ft | 523 kts | 24° |
| 2026-04-25 18:05 | 40.45804 | -112.71206 | 30953 ft | 523 kts | 24° |
| 2026-04-25 18:06 | 40.51994 | -112.66309 | 30952 ft | 522 kts | 24° |
| 2026-04-25 18:06 | 40.58219 | -112.61368 | 30950 ft | 522 kts | 24° |
| 2026-04-25 18:07 | 40.64444 | -112.56418 | 30950 ft | 522 kts | 24° |
| 2026-04-25 18:07 | 40.70661 | -112.51463 | 30949 ft | 522 kts | 25° |
| 2026-04-25 18:08 | 40.76873 | -112.46502 | 30949 ft | 522 kts | 25° |
| 2026-04-25 18:08 | 40.83082 | -112.41532 | 30951 ft | 522 kts | 25° |
| 2026-04-25 18:09 | 40.89287 | -112.36555 | 30951 ft | 522 kts | 25° |
| 2026-04-25 18:09 | 40.95493 | -112.31569 | 30948 ft | 522 kts | 24° |
| 2026-04-25 18:10 | 41.01702 | -112.26595 | 30944 ft | 522 kts | 25° |
| 2026-04-25 18:10 | 41.07894 | -112.21584 | 30942 ft | 522 kts | 25° |
| 2026-04-25 18:11 | 41.14085 | -112.16560 | 30944 ft | 522 kts | 25° |
| 2026-04-25 18:11 | 41.20273 | -112.11533 | 30943 ft | 521 kts | 25° |
| 2026-04-25 18:12 | 41.26500 | -112.06602 | 30941 ft | 520 kts | 23° |
| 2026-04-25 18:12 | 41.32808 | -112.01930 | 30943 ft | 519 kts | 22° |
| 2026-04-25 18:13 | 41.39091 | -111.97227 | 30950 ft | 518 kts | 23° |
| 2026-04-25 18:13 | 41.45356 | -111.92502 | 30954 ft | 517 kts | 23° |
| 2026-04-25 18:14 | 41.54762 | -111.85397 | 30957 ft | 518 kts | 22° |
| 2026-04-25 18:14 | 41.61043 | -111.80675 | 30958 ft | 518 kts | 23° |
| 2026-04-25 18:15 | 41.67316 | -111.75926 | 30958 ft | 518 kts | 23° |
| 2026-04-25 18:15 | 41.73583 | -111.71161 | 30959 ft | 518 kts | 23° |
| 2026-04-25 18:16 | 41.79807 | -111.66416 | 30958 ft | 518 kts | 23° |
| 2026-04-25 18:17 | 41.89202 | -111.59230 | 30954 ft | 518 kts | 23° |
| 2026-04-25 18:17 | 41.95461 | -111.54429 | 30949 ft | 518 kts | 23° |
| 2026-04-25 18:18 | 42.01720 | -111.49617 | 30943 ft | 518 kts | 23° |
| 2026-04-25 18:18 | 42.07970 | -111.44801 | 30937 ft | 517 kts | 24° |
| 2026-04-25 18:19 | 42.14210 | -111.39981 | 30933 ft | 517 kts | 24° |
| 2026-04-25 18:19 | 42.20448 | -111.35152 | 30931 ft | 517 kts | 24° |
| 2026-04-25 18:20 | 42.26682 | -111.30315 | 30929 ft | 517 kts | 24° |
| 2026-04-25 18:20 | 42.32922 | -111.25462 | 30931 ft | 518 kts | 24° |
| 2026-04-25 18:21 | 42.39165 | -111.20595 | 30933 ft | 517 kts | 24° |
| 2026-04-25 18:21 | 42.45397 | -111.15725 | 30936 ft | 517 kts | 24° |
| 2026-04-25 18:22 | 42.51630 | -111.10844 | 30942 ft | 517 kts | 24° |
| 2026-04-25 18:22 | 42.57852 | -111.05960 | 30946 ft | 517 kts | 24° |
| 2026-04-25 18:23 | 42.64028 | -111.01101 | 30949 ft | 516 kts | 24° |
| 2026-04-25 18:23 | 42.70236 | -110.96205 | 30950 ft | 516 kts | 24° |
| 2026-04-25 18:24 | 42.76436 | -110.91303 | 30950 ft | 515 kts | 24° |
| 2026-04-25 18:24 | 42.82635 | -110.86392 | 30952 ft | 515 kts | 24° |
| 2026-04-25 18:25 | 42.88831 | -110.81471 | 30956 ft | 516 kts | 24° |
| 2026-04-25 18:25 | 42.95021 | -110.76544 | 30960 ft | 515 kts | 24° |
| 2026-04-25 18:26 | 43.01208 | -110.71607 | 30963 ft | 515 kts | 24° |
| 2026-04-25 18:26 | 43.07389 | -110.66663 | 30964 ft | 514 kts | 24° |
| 2026-04-25 18:27 | 43.13562 | -110.61715 | 30965 ft | 514 kts | 25° |
| 2026-04-25 18:27 | 43.19739 | -110.56751 | 30964 ft | 515 kts | 25° |
| 2026-04-25 18:28 | 43.25912 | -110.51778 | 30962 ft | 515 kts | 25° |
| 2026-04-25 18:28 | 43.32076 | -110.46801 | 30960 ft | 513 kts | 25° |
| 2026-04-25 18:29 | 43.41299 | -110.39332 | 30956 ft | 513 kts | 25° |
| 2026-04-25 18:30 | 43.53555 | -110.29365 | 30951 ft | 512 kts | 25° |
| 2026-04-25 18:30 | 43.59694 | -110.24354 | 30952 ft | 513 kts | 25° |
| 2026-04-25 18:31 | 43.65829 | -110.19336 | 30948 ft | 513 kts | 25° |
| 2026-04-25 18:31 | 43.71971 | -110.14299 | 30942 ft | 513 kts | 25° |
| 2026-04-25 18:32 | 43.78103 | -110.09258 | 30940 ft | 513 kts | 25° |
| 2026-04-25 18:32 | 43.84234 | -110.04206 | 30940 ft | 513 kts | 25° |
| 2026-04-25 18:33 | 43.90362 | -109.99144 | 30942 ft | 513 kts | 25° |
| 2026-04-25 18:33 | 43.96494 | -109.94067 | 30937 ft | 514 kts | 25° |
| 2026-04-25 18:34 | 44.02692 | -109.88925 | 30943 ft | 523 kts | 25° |
| 2026-04-25 18:34 | 44.08941 | -109.83723 | 30943 ft | 523 kts | 25° |
| 2026-04-25 18:35 | 44.15176 | -109.78522 | 30950 ft | 522 kts | 25° |
| 2026-04-25 18:35 | 44.21403 | -109.73316 | 30957 ft | 522 kts | 25° |
| 2026-04-25 18:36 | 44.27617 | -109.68106 | 30962 ft | 521 kts | 25° |
| 2026-04-25 18:36 | 44.33817 | -109.62897 | 30975 ft | 519 kts | 25° |
| 2026-04-25 18:37 | 44.39963 | -109.57719 | 30985 ft | 519 kts | 26° |
| 2026-04-25 18:37 | 44.46178 | -109.52464 | 30992 ft | 518 kts | 26° |
| 2026-04-25 18:38 | 44.52305 | -109.47278 | 30998 ft | 517 kts | 26° |
| 2026-04-25 18:38 | 44.58447 | -109.42062 | 31004 ft | 515 kts | 26° |
| 2026-04-25 18:39 | 44.64572 | -109.36849 | 31008 ft | 515 kts | 26° |
| 2026-04-25 18:39 | 44.70692 | -109.31632 | 31011 ft | 514 kts | 26° |
| 2026-04-25 18:40 | 44.76794 | -109.26412 | 31009 ft | 512 kts | 26° |
| 2026-04-25 18:40 | 44.82878 | -109.21196 | 31005 ft | 512 kts | 26° |
| 2026-04-25 18:41 | 44.88952 | -109.15975 | 30997 ft | 511 kts | 27° |
| 2026-04-25 18:41 | 44.95014 | -109.10751 | 30994 ft | 510 kts | 27° |
| 2026-04-25 18:42 | 44.99063 | -109.07254 | 30994 ft | 509 kts | 27° |
| 2026-04-25 18:42 | 45.07096 | -109.00301 | 30999 ft | 508 kts | 27° |
| 2026-04-25 18:43 | 45.13123 | -108.95068 | 31007 ft | 508 kts | 27° |
| 2026-04-25 18:43 | 45.19102 | -108.89864 | 31012 ft | 507 kts | 27° |
| 2026-04-25 18:44 | 45.25100 | -108.84630 | 31018 ft | 506 kts | 27° |
| 2026-04-25 18:44 | 45.31091 | -108.79390 | 31026 ft | 505 kts | 27° |
| 2026-04-25 18:45 | 45.37075 | -108.74142 | 31035 ft | 505 kts | 27° |
| 2026-04-25 18:45 | 45.43045 | -108.68893 | 31042 ft | 504 kts | 27° |
| 2026-04-25 18:46 | 45.49003 | -108.63642 | 31048 ft | 503 kts | 28° |
| 2026-04-25 18:46 | 45.54948 | -108.58389 | 31051 ft | 503 kts | 28° |
| 2026-04-25 18:47 | 45.60888 | -108.53127 | 31048 ft | 502 kts | 28° |
| 2026-04-25 18:47 | 45.66828 | -108.47895 | 31047 ft | 501 kts | 28° |
| 2026-04-25 18:48 | 45.72738 | -108.42625 | 31051 ft | 500 kts | 28° |
| 2026-04-25 18:48 | 45.77645 | -108.38232 | 31052 ft | 500 kts | 28° |
| 2026-04-25 18:49 | 45.83537 | -108.32947 | 31049 ft | 500 kts | 28° |
| 2026-04-25 18:49 | 45.89423 | -108.27655 | 31049 ft | 499 kts | 29° |
| 2026-04-25 18:50 | 45.95214 | -108.22156 | 31049 ft | 499 kts | 30° |
| 2026-04-25 18:50 | 46.00990 | -108.16598 | 31048 ft | 499 kts | 30° |
| 2026-04-25 18:51 | 46.05786 | -108.11981 | 31048 ft | 499 kts | 30° |
| 2026-04-25 18:51 | 46.12528 | -108.05482 | 31049 ft | 499 kts | 30° |
| 2026-04-25 18:52 | 46.18302 | -107.99917 | 31050 ft | 499 kts | 30° |
| 2026-04-25 18:52 | 46.24096 | -107.94397 | 31050 ft | 499 kts | 30° |
| 2026-04-25 18:53 | 46.29873 | -107.88843 | 31044 ft | 499 kts | 30° |
| 2026-04-25 18:53 | 46.35644 | -107.83267 | 31043 ft | 499 kts | 30° |
| 2026-04-25 18:54 | 46.44298 | -107.74867 | 31042 ft | 499 kts | 30° |
| 2026-04-25 18:55 | 46.50057 | -107.69256 | 31041 ft | 498 kts | 30° |
| 2026-04-25 18:55 | 46.55811 | -107.63635 | 31040 ft | 498 kts | 30° |
| 2026-04-25 18:56 | 46.61529 | -107.58035 | 31039 ft | 498 kts | 30° |
| 2026-04-25 18:56 | 46.67273 | -107.52394 | 31037 ft | 498 kts | 30° |
| 2026-04-25 18:57 | 46.73019 | -107.46736 | 31036 ft | 498 kts | 30° |
| 2026-04-25 18:57 | 46.78764 | -107.41065 | 31034 ft | 498 kts | 30° |
| 2026-04-25 18:58 | 46.84507 | -107.35381 | 31033 ft | 498 kts | 30° |
| 2026-04-25 18:58 | 46.93099 | -107.26848 | 31030 ft | 498 kts | 30° |
| 2026-04-25 18:59 | 47.04558 | -107.15417 | 31025 ft | 498 kts | 30° |
| 2026-04-25 19:00 | 47.13147 | -107.06808 | 31023 ft | 499 kts | 30° |
| 2026-04-25 19:01 | 47.21731 | -106.98171 | 31021 ft | 499 kts | 30° |
| 2026-04-25 19:01 | 47.27454 | -106.92392 | 31020 ft | 499 kts | 30° |
| 2026-04-25 19:02 | 47.36035 | -106.83700 | 31020 ft | 499 kts | 30° |
| 2026-04-25 19:03 | 47.43652 | -106.75955 | 31020 ft | 499 kts | 30° |
| 2026-04-25 19:03 | 47.50295 | -106.69177 | 31020 ft | 499 kts | 30° |
| 2026-04-25 19:04 | 47.58878 | -106.60389 | 31021 ft | 501 kts | 30° |
| 2026-04-25 19:05 | 47.70341 | -106.48596 | 31024 ft | 502 kts | 30° |
| 2026-04-25 19:06 | 47.76075 | -106.42673 | 31024 ft | 502 kts | 30° |
| 2026-04-25 19:06 | 47.84673 | -106.33761 | 31025 ft | 502 kts | 30° |
| 2026-04-25 19:07 | 47.93263 | -106.24819 | 31026 ft | 502 kts | 30° |
| 2026-04-25 19:08 | 48.01855 | -106.15840 | 31028 ft | 503 kts | 30° |
| 2026-04-25 19:09 | 48.12342 | -106.04828 | 31027 ft | 503 kts | 30° |
| 2026-04-25 19:10 | 48.21890 | -105.94755 | 31027 ft | 503 kts | 30° |
| 2026-04-25 19:10 | 48.27605 | -105.88702 | 31026 ft | 503 kts | 30° |
| 2026-04-25 19:11 | 48.33289 | -105.82666 | 31023 ft | 504 kts | 31° |
| 2026-04-25 19:11 | 48.39010 | -105.76573 | 31018 ft | 504 kts | 31° |
| 2026-04-25 19:12 | 48.44725 | -105.70470 | 31009 ft | 504 kts | 31° |
| 2026-04-25 19:12 | 48.50455 | -105.64333 | 30998 ft | 505 kts | 31° |
| 2026-04-25 19:13 | 48.56180 | -105.58185 | 30986 ft | 505 kts | 31° |
| 2026-04-25 19:13 | 48.61903 | -105.52021 | 30973 ft | 506 kts | 31° |
| 2026-04-25 19:14 | 48.67629 | -105.45836 | 30966 ft | 506 kts | 31° |
| 2026-04-25 19:14 | 48.73355 | -105.39633 | 30961 ft | 506 kts | 32° |
| 2026-04-25 19:15 | 48.79084 | -105.33409 | 30961 ft | 507 kts | 32° |
| 2026-04-25 19:15 | 48.84815 | -105.27167 | 30987 ft | 508 kts | 32° |
| 2026-04-25 19:15 | 48.87676 | -105.24042 | 31354 ft | 505 kts | 32° |
| 2026-04-25 19:16 | 48.90533 | -105.20919 | 31571 ft | 507 kts | 32° |
| 2026-04-25 19:16 | 48.93391 | -105.17791 | 31799 ft | 507 kts | 32° |
| 2026-04-25 19:16 | 48.96217 | -105.14691 | 32023 ft | 507 kts | 32° |
| 2026-04-25 19:16 | 48.99073 | -105.11555 | 32273 ft | 507 kts | 32° |
| 2026-04-25 19:17 | 49.01931 | -105.08413 | 32511 ft | 506 kts | 33° |
| 2026-04-25 19:17 | 49.04785 | -105.05269 | 32725 ft | 507 kts | 33° |
| 2026-04-25 19:17 | 49.07643 | -105.02118 | 32933 ft | 507 kts | 33° |
| 2026-04-25 19:18 | 49.13355 | -104.95804 | 32974 ft | 506 kts | 33° |
| 2026-04-25 19:18 | 49.19056 | -104.89484 | 32969 ft | 506 kts | 33° |
| 2026-04-25 19:19 | 49.24759 | -104.83144 | 32953 ft | 507 kts | 33° |
| 2026-04-25 19:19 | 49.30466 | -104.76781 | 32950 ft | 507 kts | 33° |
| 2026-04-25 19:20 | 49.36166 | -104.70407 | 32947 ft | 507 kts | 34° |
| 2026-04-25 19:20 | 49.41865 | -104.64015 | 32942 ft | 507 kts | 34° |
| 2026-04-25 19:21 | 49.47565 | -104.57604 | 32938 ft | 507 kts | 34° |
| 2026-04-25 19:21 | 49.56098 | -104.47970 | 32931 ft | 507 kts | 34° |
| 2026-04-25 19:22 | 49.61747 | -104.41569 | 32927 ft | 507 kts | 34° |
| 2026-04-25 19:23 | 49.70270 | -104.31876 | 32921 ft | 507 kts | 34° |
| 2026-04-25 19:23 | 49.78788 | -104.22144 | 32915 ft | 508 kts | 34° |
| 2026-04-25 19:24 | 49.84464 | -104.15635 | 32911 ft | 507 kts | 34° |
| 2026-04-25 19:25 | 49.95798 | -104.02580 | 32905 ft | 508 kts | 35° |
| 2026-04-25 19:25 | 50.01463 | -103.96025 | 32903 ft | 508 kts | 35° |
| 2026-04-25 19:26 | 50.07125 | -103.89454 | 32901 ft | 508 kts | 35° |
| 2026-04-25 19:26 | 50.12783 | -103.82868 | 32900 ft | 508 kts | 35° |
| 2026-04-25 19:27 | 50.16567 | -103.78452 | 32899 ft | 508 kts | 35° |
| 2026-04-25 19:27 | 50.24084 | -103.69653 | 32897 ft | 507 kts | 35° |
| 2026-04-25 19:28 | 50.29734 | -103.63017 | 32896 ft | 508 kts | 35° |
| 2026-04-25 19:28 | 50.35376 | -103.56369 | 32895 ft | 508 kts | 36° |
| 2026-04-25 19:29 | 50.41020 | -103.49698 | 32893 ft | 508 kts | 36° |
| 2026-04-25 19:29 | 50.46659 | -103.43013 | 32886 ft | 508 kts | 36° |
| 2026-04-25 19:30 | 50.52294 | -103.36313 | 32881 ft | 508 kts | 36° |
| 2026-04-25 19:30 | 50.57928 | -103.29593 | 32879 ft | 508 kts | 36° |
| 2026-04-25 19:31 | 50.63560 | -103.22854 | 32876 ft | 509 kts | 36° |
| 2026-04-25 19:31 | 50.69192 | -103.16095 | 32873 ft | 509 kts | 37° |
| 2026-04-25 19:32 | 50.74826 | -103.09313 | 32870 ft | 509 kts | 37° |
| 2026-04-25 19:32 | 50.78554 | -103.04813 | 32867 ft | 509 kts | 37° |
| 2026-04-25 19:33 | 50.86046 | -102.95742 | 32863 ft | 510 kts | 37° |
| 2026-04-25 19:33 | 50.91670 | -102.88907 | 32861 ft | 510 kts | 37° |
| 2026-04-25 19:34 | 50.97292 | -102.82054 | 32858 ft | 510 kts | 37° |
| 2026-04-25 19:34 | 51.02919 | -102.75213 | 32855 ft | 510 kts | 37° |
| 2026-04-25 19:35 | 51.08548 | -102.68340 | 32853 ft | 510 kts | 38° |
| 2026-04-25 19:35 | 51.14154 | -102.61417 | 32852 ft | 510 kts | 38° |
| 2026-04-25 19:36 | 51.19753 | -102.54477 | 32851 ft | 510 kts | 38° |
| 2026-04-25 19:36 | 51.25365 | -102.47536 | 32849 ft | 511 kts | 36° |
| 2026-04-25 19:37 | 51.30322 | -102.42424 | 32851 ft | 511 kts | 31° |
| 2026-04-25 19:37 | 51.36529 | -102.36872 | 32850 ft | 511 kts | 29° |
| 2026-04-25 19:38 | 51.42737 | -102.31322 | 32852 ft | 511 kts | 30° |
| 2026-04-25 19:38 | 51.48935 | -102.25698 | 32853 ft | 512 kts | 30° |
| 2026-04-25 19:39 | 51.55124 | -102.20038 | 32855 ft | 512 kts | 30° |
| 2026-04-25 19:39 | 51.61330 | -102.14423 | 32857 ft | 512 kts | 30° |
| 2026-04-25 19:40 | 51.67529 | -102.08783 | 32860 ft | 511 kts | 30° |
| 2026-04-25 19:40 | 51.73715 | -102.03109 | 32862 ft | 511 kts | 31° |
| 2026-04-25 19:41 | 51.79856 | -101.97448 | 32866 ft | 512 kts | 31° |
| 2026-04-25 19:41 | 51.85034 | -101.92658 | 32868 ft | 512 kts | 31° |
| 2026-04-25 19:42 | 51.92210 | -101.85996 | 32872 ft | 512 kts | 31° |
| 2026-04-25 19:42 | 51.98383 | -101.80245 | 32874 ft | 512 kts | 31° |
| 2026-04-25 19:43 | 52.04556 | -101.74475 | 32877 ft | 512 kts | 31° |
| 2026-04-25 19:43 | 52.10730 | -101.68685 | 32879 ft | 512 kts | 31° |
| 2026-04-25 19:44 | 52.16896 | -101.62884 | 32886 ft | 512 kts | 31° |
| 2026-04-25 19:44 | 52.23063 | -101.57063 | 32890 ft | 512 kts | 31° |
| 2026-04-25 19:45 | 52.29224 | -101.51230 | 32891 ft | 512 kts | 32° |
| 2026-04-25 19:45 | 52.35371 | -101.45390 | 32894 ft | 511 kts | 32° |
| 2026-04-25 19:46 | 52.41523 | -101.39527 | 32896 ft | 511 kts | 32° |
| 2026-04-25 19:46 | 52.47667 | -101.33652 | 32897 ft | 511 kts | 32° |
| 2026-04-25 19:47 | 52.53801 | -101.27767 | 32899 ft | 511 kts | 32° |
| 2026-04-25 19:47 | 52.59930 | -101.21868 | 32900 ft | 510 kts | 33° |
| 2026-04-25 19:48 | 52.66050 | -101.15958 | 32901 ft | 510 kts | 33° |
| 2026-04-25 19:48 | 52.72132 | -101.10067 | 32903 ft | 510 kts | 33° |
| 2026-04-25 19:49 | 52.77256 | -101.05087 | 32910 ft | 510 kts | 33° |
| 2026-04-25 19:49 | 52.84362 | -100.98159 | 32913 ft | 510 kts | 33° |
| 2026-04-25 19:50 | 52.93510 | -100.89202 | 32915 ft | 509 kts | 33° |
| 2026-04-25 19:51 | 52.99602 | -100.83211 | 32915 ft | 509 kts | 34° |
| 2026-04-25 19:51 | 53.05688 | -100.77208 | 32916 ft | 509 kts | 34° |
| 2026-04-25 19:52 | 53.11769 | -100.71189 | 32916 ft | 508 kts | 34° |
| 2026-04-25 19:52 | 53.17846 | -100.65154 | 32917 ft | 508 kts | 34° |
| 2026-04-25 19:53 | 53.23911 | -100.59110 | 32916 ft | 508 kts | 34° |
| 2026-04-25 19:53 | 53.29963 | -100.53060 | 32918 ft | 507 kts | 34° |
| 2026-04-25 19:54 | 53.36052 | -100.46952 | 32917 ft | 507 kts | 35° |
| 2026-04-25 19:54 | 53.42090 | -100.40874 | 32918 ft | 506 kts | 35° |
| 2026-04-25 19:55 | 53.48089 | -100.34816 | 32918 ft | 506 kts | 35° |
| 2026-04-25 19:55 | 53.54115 | -100.28710 | 32919 ft | 505 kts | 36° |
| 2026-04-25 19:56 | 53.60124 | -100.22601 | 32919 ft | 505 kts | 36° |
| 2026-04-25 19:56 | 53.66127 | -100.16477 | 32919 ft | 504 kts | 36° |
| 2026-04-25 19:57 | 53.72120 | -100.10343 | 32920 ft | 504 kts | 36° |
| 2026-04-25 19:57 | 53.78147 | -100.04154 | 32921 ft | 504 kts | 36° |
| 2026-04-25 19:58 | 53.84089 | -99.98030 | 32926 ft | 503 kts | 36° |
| 2026-04-25 19:58 | 53.90103 | -99.91812 | 32928 ft | 503 kts | 36° |
| 2026-04-25 19:59 | 53.96075 | -99.85616 | 32930 ft | 503 kts | 36° |
| 2026-04-25 19:59 | 54.02004 | -99.79444 | 32933 ft | 503 kts | 36° |
| 2026-04-25 20:00 | 54.07964 | -99.73219 | 32936 ft | 503 kts | 37° |
| 2026-04-25 20:00 | 54.13929 | -99.66966 | 32939 ft | 503 kts | 37° |
| 2026-04-25 20:01 | 54.22863 | -99.57563 | 32943 ft | 502 kts | 37° |
| 2026-04-25 20:01 | 54.28808 | -99.51277 | 32946 ft | 502 kts | 37° |
| 2026-04-25 20:02 | 54.34743 | -99.44982 | 32949 ft | 502 kts | 37° |
| 2026-04-25 20:02 | 54.40670 | -99.38673 | 32951 ft | 501 kts | 37° |
| 2026-04-25 20:03 | 54.46584 | -99.32356 | 32955 ft | 501 kts | 37° |
| 2026-04-25 20:03 | 54.52499 | -99.26017 | 32959 ft | 501 kts | 38° |
| 2026-04-25 20:04 | 54.58404 | -99.19666 | 32962 ft | 500 kts | 38° |
| 2026-04-25 20:04 | 54.64298 | -99.13305 | 32965 ft | 499 kts | 38° |
| 2026-04-25 20:05 | 54.70185 | -99.06929 | 32968 ft | 499 kts | 38° |
| 2026-04-25 20:05 | 54.76069 | -99.00535 | 32987 ft | 499 kts | 38° |
| 2026-04-25 20:06 | 54.81941 | -98.94131 | 32991 ft | 498 kts | 38° |
| 2026-04-25 20:06 | 54.87799 | -98.87721 | 32995 ft | 498 kts | 38° |
| 2026-04-25 20:07 | 54.93649 | -98.81297 | 32999 ft | 497 kts | 39° |
| 2026-04-25 20:07 | 54.99495 | -98.74854 | 33002 ft | 497 kts | 39° |
| 2026-04-25 20:08 | 55.05334 | -98.68397 | 33007 ft | 497 kts | 39° |
| 2026-04-25 20:08 | 55.11162 | -98.61929 | 33011 ft | 496 kts | 39° |
| 2026-04-25 20:09 | 55.16978 | -98.55453 | 33015 ft | 496 kts | 39° |
| 2026-04-25 20:09 | 55.22792 | -98.48955 | 33019 ft | 495 kts | 39° |
| 2026-04-25 20:10 | 55.28592 | -98.42450 | 33023 ft | 495 kts | 40° |
| 2026-04-25 20:10 | 55.34387 | -98.35928 | 33026 ft | 495 kts | 40° |
| 2026-04-25 20:11 | 55.40179 | -98.29386 | 33029 ft | 495 kts | 40° |
| 2026-04-25 20:11 | 55.45958 | -98.22836 | 33032 ft | 494 kts | 40° |
| 2026-04-25 20:12 | 55.51734 | -98.16267 | 33035 ft | 493 kts | 41° |
| 2026-04-25 20:12 | 55.55597 | -98.11892 | 33037 ft | 493 kts | 40° |
| 2026-04-25 20:13 | 55.63270 | -98.03150 | 33039 ft | 493 kts | 41° |
| 2026-04-25 20:13 | 55.69013 | -97.96519 | 33039 ft | 492 kts | 41° |
| 2026-04-25 20:14 | 55.74734 | -97.89890 | 33040 ft | 491 kts | 41° |
| 2026-04-25 20:14 | 55.80455 | -97.83253 | 33040 ft | 491 kts | 41° |
| 2026-04-25 20:15 | 55.86194 | -97.76644 | 33041 ft | 491 kts | 41° |
| 2026-04-25 20:15 | 55.91935 | -97.70032 | 33041 ft | 492 kts | 41° |
| 2026-04-25 20:16 | 55.97672 | -97.63384 | 33043 ft | 491 kts | 41° |
| 2026-04-25 20:16 | 56.03397 | -97.56720 | 33045 ft | 490 kts | 41° |
| 2026-04-25 20:17 | 56.09101 | -97.50053 | 33049 ft | 490 kts | 42° |
| 2026-04-25 20:17 | 56.14841 | -97.43453 | 33053 ft | 490 kts | 41° |
| 2026-04-25 20:18 | 56.20566 | -97.36821 | 33058 ft | 489 kts | 41° |
| 2026-04-25 20:18 | 56.26262 | -97.30162 | 33063 ft | 488 kts | 42° |
| 2026-04-25 20:19 | 56.31949 | -97.23476 | 33069 ft | 487 kts | 42° |
| 2026-04-25 20:19 | 56.37615 | -97.16784 | 33075 ft | 487 kts | 42° |
| 2026-04-25 20:20 | 56.43277 | -97.10071 | 33095 ft | 487 kts | 43° |
| 2026-04-25 20:20 | 56.47970 | -97.04487 | 33104 ft | 485 kts | 43° |
| 2026-04-25 20:21 | 56.53598 | -96.97770 | 33113 ft | 485 kts | 43° |
| 2026-04-25 20:21 | 56.59229 | -96.91023 | 33122 ft | 485 kts | 43° |
| 2026-04-25 20:22 | 56.63900 | -96.85409 | 33128 ft | 485 kts | 43° |
| 2026-04-25 20:22 | 56.70454 | -96.77503 | 33137 ft | 483 kts | 43° |
| 2026-04-25 20:23 | 56.76049 | -96.70726 | 33144 ft | 483 kts | 43° |
| 2026-04-25 20:23 | 56.81637 | -96.63933 | 33151 ft | 483 kts | 43° |
| 2026-04-25 20:24 | 56.87221 | -96.57121 | 33157 ft | 482 kts | 43° |
| 2026-04-25 20:24 | 56.92799 | -96.50290 | 33162 ft | 482 kts | 43° |
| 2026-04-25 20:25 | 56.98357 | -96.43460 | 33167 ft | 481 kts | 43° |
| 2026-04-25 20:25 | 57.03905 | -96.36617 | 33172 ft | 481 kts | 43° |
| 2026-04-25 20:26 | 57.09452 | -96.29750 | 33177 ft | 481 kts | 43° |
| 2026-04-25 20:26 | 57.14992 | -96.22866 | 33182 ft | 480 kts | 43° |
| 2026-04-25 20:27 | 57.20517 | -96.15977 | 33185 ft | 479 kts | 43° |
| 2026-04-25 20:27 | 57.25995 | -96.09120 | 33190 ft | 479 kts | 43° |
| 2026-04-25 20:28 | 57.31505 | -96.02198 | 33195 ft | 479 kts | 43° |
| 2026-04-25 20:28 | 57.37006 | -95.95261 | 33199 ft | 478 kts | 43° |
| 2026-04-25 20:29 | 57.42491 | -95.88320 | 33203 ft | 477 kts | 43° |
| 2026-04-25 20:29 | 57.47970 | -95.81360 | 33208 ft | 477 kts | 43° |
| 2026-04-25 20:30 | 57.53445 | -95.74380 | 33213 ft | 477 kts | 43° |
| 2026-04-25 20:30 | 57.58919 | -95.67375 | 33218 ft | 477 kts | 43° |
| 2026-04-25 20:31 | 57.64385 | -95.60354 | 33223 ft | 477 kts | 43° |
| 2026-04-25 20:31 | 57.69846 | -95.53314 | 33228 ft | 477 kts | 43° |
| 2026-04-25 20:32 | 57.75301 | -95.46254 | 33234 ft | 477 kts | 43° |
| 2026-04-25 20:32 | 57.80753 | -95.39173 | 33240 ft | 477 kts | 43° |
| 2026-04-25 20:33 | 57.86199 | -95.32072 | 33246 ft | 477 kts | 43° |
| 2026-04-25 20:33 | 57.90757 | -95.26108 | 33251 ft | 477 kts | 43° |
| 2026-04-25 20:34 | 57.97087 | -95.17796 | 33259 ft | 477 kts | 43° |
| 2026-04-25 20:34 | 58.02535 | -95.10611 | 33266 ft | 478 kts | 43° |
| 2026-04-25 20:35 | 58.07977 | -95.03408 | 33272 ft | 477 kts | 43° |
| 2026-04-25 20:35 | 58.13413 | -94.96186 | 33278 ft | 478 kts | 43° |
| 2026-04-25 20:36 | 58.18853 | -94.88931 | 33285 ft | 479 kts | 43° |
| 2026-04-25 20:36 | 58.24291 | -94.81650 | 33290 ft | 479 kts | 43° |
| 2026-04-25 20:37 | 58.29725 | -94.74346 | 33296 ft | 478 kts | 43° |
| 2026-04-25 20:37 | 58.35153 | -94.67023 | 33303 ft | 478 kts | 43° |
| 2026-04-25 20:38 | 58.40582 | -94.59671 | 33308 ft | 479 kts | 43° |
| 2026-04-25 20:38 | 58.46012 | -94.52288 | 33312 ft | 479 kts | 43° |
| 2026-04-25 20:39 | 58.51427 | -94.44985 | 33314 ft | 479 kts | 43° |
| 2026-04-25 20:39 | 58.55976 | -94.38772 | 33316 ft | 479 kts | 43° |
| 2026-04-25 20:40 | 58.62259 | -94.30092 | 33318 ft | 479 kts | 43° |
| 2026-04-25 20:40 | 58.67658 | -94.22598 | 33319 ft | 479 kts | 43° |
| 2026-04-25 20:41 | 58.73058 | -94.15096 | 33320 ft | 479 kts | 43° |
| 2026-04-25 20:41 | 58.78320 | -94.07282 | 33320 ft | 476 kts | 47° |
| 2026-04-25 20:42 | 58.83396 | -93.99124 | 33320 ft | 474 kts | 47° |
| 2026-04-25 20:42 | 58.88476 | -93.90963 | 33321 ft | 475 kts | 47° |
| 2026-04-25 20:43 | 58.93567 | -93.82786 | 33322 ft | 476 kts | 47° |
| 2026-04-25 20:43 | 58.98660 | -93.74589 | 33324 ft | 476 kts | 47° |
| 2026-04-25 20:44 | 59.03795 | -93.66432 | 33325 ft | 477 kts | 46° |
| 2026-04-25 20:44 | 59.08945 | -93.58290 | 33327 ft | 477 kts | 47° |
| 2026-04-25 20:45 | 59.14069 | -93.50086 | 33330 ft | 477 kts | 47° |
| 2026-04-25 20:45 | 59.19173 | -93.41850 | 33334 ft | 476 kts | 47° |
| 2026-04-25 20:46 | 59.24270 | -93.33582 | 33338 ft | 476 kts | 47° |
| 2026-04-25 20:46 | 59.29360 | -93.25285 | 33343 ft | 476 kts | 47° |
| 2026-04-25 20:47 | 59.34439 | -93.16971 | 33348 ft | 476 kts | 47° |
| 2026-04-25 20:47 | 59.39512 | -93.08631 | 33353 ft | 476 kts | 47° |
| 2026-04-25 20:48 | 59.44582 | -93.00264 | 33358 ft | 476 kts | 48° |
| 2026-04-25 20:48 | 59.49640 | -92.91881 | 33364 ft | 476 kts | 48° |
| 2026-04-25 20:49 | 59.54702 | -92.83457 | 33371 ft | 476 kts | 48° |
| 2026-04-25 20:49 | 59.59724 | -92.75067 | 33376 ft | 476 kts | 48° |
| 2026-04-25 20:50 | 59.64763 | -92.66613 | 33383 ft | 475 kts | 48° |
| 2026-04-25 20:50 | 59.69807 | -92.58118 | 33388 ft | 476 kts | 48° |
| 2026-04-25 20:51 | 59.74843 | -92.49599 | 33389 ft | 476 kts | 48° |
| 2026-04-25 20:51 | 59.79871 | -92.41060 | 33395 ft | 475 kts | 48° |
| 2026-04-25 20:52 | 59.84076 | -92.33892 | 33399 ft | 476 kts | 48° |
| 2026-04-25 20:52 | 59.89919 | -92.23889 | 33405 ft | 476 kts | 48° |
| 2026-04-25 20:53 | 59.94932 | -92.15268 | 33409 ft | 476 kts | 49° |
| 2026-04-25 20:53 | 59.99943 | -92.06616 | 33413 ft | 476 kts | 49° |
| 2026-04-25 20:54 | 60.04942 | -91.97947 | 33433 ft | 476 kts | 49° |
| 2026-04-25 20:54 | 60.09942 | -91.89242 | 33440 ft | 476 kts | 49° |
| 2026-04-25 20:55 | 60.14932 | -91.80518 | 33448 ft | 476 kts | 49° |
| 2026-04-25 20:55 | 60.19917 | -91.71765 | 33456 ft | 477 kts | 49° |
| 2026-04-25 20:56 | 60.24906 | -91.62969 | 33462 ft | 477 kts | 49° |
| 2026-04-25 20:56 | 60.29893 | -91.54138 | 33469 ft | 478 kts | 49° |
| 2026-04-25 20:57 | 60.34883 | -91.45267 | 33476 ft | 478 kts | 48° |
| 2026-04-25 20:57 | 60.39876 | -91.36350 | 33482 ft | 479 kts | 48° |
| 2026-04-25 20:58 | 60.44871 | -91.27392 | 33489 ft | 480 kts | 48° |
| 2026-04-25 20:58 | 60.49863 | -91.18400 | 33494 ft | 480 kts | 48° |
| 2026-04-25 20:59 | 60.54859 | -91.09364 | 33500 ft | 481 kts | 48° |
| 2026-04-25 20:59 | 60.59851 | -91.00294 | 33505 ft | 482 kts | 48° |
| 2026-04-25 21:00 | 60.63158 | -90.94266 | 33509 ft | 482 kts | 48° |
| 2026-04-25 21:01 | 60.72327 | -90.77459 | 33518 ft | 482 kts | 48° |
| 2026-04-25 21:01 | 60.77275 | -90.68334 | 33512 ft | 483 kts | 48° |
| 2026-04-25 21:02 | 60.82258 | -90.59102 | 33501 ft | 483 kts | 48° |
| 2026-04-25 21:02 | 60.87272 | -90.49773 | 33508 ft | 484 kts | 48° |
| 2026-04-25 21:03 | 60.92250 | -90.40469 | 33531 ft | 484 kts | 48° |
| 2026-04-25 21:03 | 60.97227 | -90.31127 | 33539 ft | 485 kts | 48° |
| 2026-04-25 21:04 | 61.02208 | -90.21736 | 33547 ft | 486 kts | 48° |
| 2026-04-25 21:04 | 61.07189 | -90.12302 | 33554 ft | 487 kts | 48° |
| 2026-04-25 21:05 | 61.12139 | -90.02885 | 33560 ft | 487 kts | 48° |
| 2026-04-25 21:05 | 61.16316 | -89.94904 | 33566 ft | 488 kts | 47° |
| 2026-04-25 21:06 | 61.21311 | -89.85323 | 33567 ft | 489 kts | 47° |
| 2026-04-25 21:06 | 61.26308 | -89.75695 | 33571 ft | 490 kts | 47° |
| 2026-04-25 21:07 | 61.31300 | -89.66032 | 33576 ft | 491 kts | 47° |
| 2026-04-25 21:07 | 61.36293 | -89.56323 | 33581 ft | 491 kts | 47° |
| 2026-04-25 21:08 | 61.41280 | -89.46582 | 33586 ft | 491 kts | 47° |
| 2026-04-25 21:08 | 61.46258 | -89.36813 | 33591 ft | 491 kts | 47° |
| 2026-04-25 21:09 | 61.53674 | -89.22175 | 33598 ft | 491 kts | 47° |
| 2026-04-25 21:09 | 61.58637 | -89.12324 | 33603 ft | 491 kts | 47° |
| 2026-04-25 21:10 | 61.63587 | -89.02452 | 33607 ft | 490 kts | 47° |
| 2026-04-25 21:10 | 61.68527 | -88.92554 | 33611 ft | 490 kts | 47° |
| 2026-04-25 21:11 | 61.73459 | -88.82624 | 33615 ft | 490 kts | 47° |
| 2026-04-25 21:11 | 61.78388 | -88.72657 | 33619 ft | 491 kts | 47° |
| 2026-04-25 21:12 | 61.83311 | -88.62653 | 33622 ft | 491 kts | 47° |
| 2026-04-25 21:12 | 61.87401 | -88.54308 | 33625 ft | 491 kts | 47° |
| 2026-04-25 21:13 | 61.93147 | -88.42527 | 33629 ft | 492 kts | 47° |
| 2026-04-25 21:13 | 61.98056 | -88.32412 | 33633 ft | 492 kts | 47° |
| 2026-04-25 21:14 | 62.02974 | -88.22227 | 33636 ft | 493 kts | 47° |
| 2026-04-25 21:14 | 62.07885 | -88.12011 | 33638 ft | 493 kts | 47° |
| 2026-04-25 21:15 | 62.12790 | -88.01759 | 33641 ft | 493 kts | 47° |
| 2026-04-25 21:15 | 62.17675 | -87.91499 | 33643 ft | 493 kts | 47° |
| 2026-04-25 21:16 | 62.22560 | -87.81189 | 33646 ft | 493 kts | 47° |
| 2026-04-25 21:16 | 62.27443 | -87.70832 | 33648 ft | 493 kts | 47° |
| 2026-04-25 21:17 | 62.32324 | -87.60432 | 33663 ft | 495 kts | 47° |
| 2026-04-25 21:17 | 62.37201 | -87.49988 | 33660 ft | 495 kts | 47° |
| 2026-04-25 21:18 | 62.42084 | -87.39481 | 33662 ft | 496 kts | 47° |
| 2026-04-25 21:18 | 62.46965 | -87.28927 | 33664 ft | 496 kts | 46° |
| 2026-04-25 21:19 | 62.51839 | -87.18333 | 33665 ft | 497 kts | 47° |
| 2026-04-25 21:19 | 62.56217 | -87.06767 | 33668 ft | 497 kts | 54° |
| 2026-04-25 21:20 | 62.59661 | -86.96793 | 33667 ft | 497 kts | 55° |
| 2026-04-25 21:20 | 62.64455 | -86.82659 | 33669 ft | 497 kts | 55° |
| 2026-04-25 21:21 | 62.68544 | -86.70552 | 33672 ft | 496 kts | 55° |
| 2026-04-25 21:21 | 62.72599 | -86.58486 | 33674 ft | 497 kts | 55° |
| 2026-04-25 21:22 | 62.76673 | -86.46299 | 33677 ft | 497 kts | 55° |
| 2026-04-25 21:22 | 62.80737 | -86.34081 | 33679 ft | 497 kts | 55° |
| 2026-04-25 21:23 | 62.84798 | -86.21803 | 33686 ft | 497 kts | 55° |
| 2026-04-25 21:23 | 62.88844 | -86.09507 | 33719 ft | 498 kts | 55° |
| 2026-04-25 21:24 | 62.92892 | -85.97137 | 33724 ft | 499 kts | 55° |
| 2026-04-25 21:24 | 62.96929 | -85.84731 | 33736 ft | 499 kts | 55° |
| 2026-04-25 21:25 | 63.00961 | -85.72278 | 33740 ft | 500 kts | 55° |
| 2026-04-25 21:25 | 63.04988 | -85.59769 | 33741 ft | 501 kts | 55° |
| 2026-04-25 21:26 | 63.09011 | -85.47204 | 33744 ft | 502 kts | 55° |
| 2026-04-25 21:26 | 63.13024 | -85.34599 | 33744 ft | 502 kts | 55° |
| 2026-04-25 21:27 | 63.17030 | -85.21948 | 33746 ft | 502 kts | 55° |
| 2026-04-25 21:27 | 63.21026 | -85.09257 | 33747 ft | 502 kts | 55° |
| 2026-04-25 21:28 | 63.25016 | -84.96514 | 33747 ft | 502 kts | 55° |
| 2026-04-25 21:28 | 63.28989 | -84.83753 | 33749 ft | 503 kts | 55° |
| 2026-04-25 21:29 | 63.32935 | -84.71008 | 33748 ft | 503 kts | 55° |
| 2026-04-25 21:29 | 63.36897 | -84.58138 | 33749 ft | 504 kts | 55° |
| 2026-04-25 21:30 | 63.40855 | -84.45209 | 33749 ft | 505 kts | 55° |
| 2026-04-25 21:30 | 63.44164 | -84.34342 | 33750 ft | 506 kts | 55° |
| 2026-04-25 21:31 | 63.48757 | -84.19172 | 33752 ft | 507 kts | 55° |
| 2026-04-25 21:31 | 63.52701 | -84.06062 | 33751 ft | 508 kts | 55° |
| 2026-04-25 21:32 | 63.56637 | -83.92902 | 33752 ft | 508 kts | 55° |
| 2026-04-25 21:32 | 63.60565 | -83.79695 | 33751 ft | 508 kts | 55° |
| 2026-04-25 21:33 | 63.64477 | -83.66464 | 33751 ft | 508 kts | 55° |
| 2026-04-25 21:33 | 63.68376 | -83.53199 | 33750 ft | 508 kts | 55° |
| 2026-04-25 21:34 | 63.72265 | -83.39890 | 33741 ft | 507 kts | 55° |
| 2026-04-25 21:34 | 63.76131 | -83.26581 | 33739 ft | 507 kts | 55° |
| 2026-04-25 21:35 | 63.79988 | -83.13225 | 33739 ft | 506 kts | 56° |
| 2026-04-25 21:35 | 63.83824 | -82.99858 | 33739 ft | 507 kts | 56° |
| 2026-04-25 21:36 | 63.87654 | -82.86435 | 33740 ft | 507 kts | 56° |
| 2026-04-25 21:36 | 63.91472 | -82.72975 | 33739 ft | 507 kts | 56° |
| 2026-04-25 21:37 | 63.94642 | -82.61740 | 33740 ft | 508 kts | 56° |
| 2026-04-25 21:37 | 63.99095 | -82.45857 | 33740 ft | 509 kts | 55° |
| 2026-04-25 21:38 | 64.02910 | -82.32157 | 33740 ft | 514 kts | 55° |
| 2026-04-25 21:38 | 64.06729 | -82.18366 | 33739 ft | 513 kts | 55° |
| 2026-04-25 21:39 | 64.10521 | -82.04585 | 33739 ft | 512 kts | 56° |
| 2026-04-25 21:39 | 64.14299 | -81.90770 | 33739 ft | 512 kts | 56° |
| 2026-04-25 21:40 | 64.18041 | -81.76999 | 33739 ft | 512 kts | 56° |
| 2026-04-25 21:40 | 64.21803 | -81.63068 | 33739 ft | 513 kts | 56° |
| 2026-04-25 21:41 | 64.25555 | -81.49090 | 33744 ft | 514 kts | 56° |
| 2026-04-25 21:41 | 64.29302 | -81.35040 | 33746 ft | 516 kts | 55° |
| 2026-04-25 21:42 | 64.33044 | -81.20918 | 33744 ft | 517 kts | 55° |
| 2026-04-25 21:42 | 64.36779 | -81.06737 | 33741 ft | 517 kts | 55° |
| 2026-04-25 21:43 | 64.40504 | -80.92501 | 33742 ft | 517 kts | 55° |
| 2026-04-25 21:43 | 64.44216 | -80.78225 | 33742 ft | 517 kts | 55° |
| 2026-04-25 21:44 | 64.47912 | -80.63920 | 33742 ft | 517 kts | 55° |
| 2026-04-25 21:45 | 64.53420 | -80.42426 | 33743 ft | 516 kts | 55° |
| 2026-04-25 21:45 | 64.57067 | -80.28079 | 33744 ft | 516 kts | 55° |
| 2026-04-25 21:46 | 64.60702 | -80.13681 | 33745 ft | 516 kts | 56° |
| 2026-04-25 21:46 | 64.64323 | -79.99248 | 33745 ft | 516 kts | 56° |
| 2026-04-25 21:47 | 64.67931 | -79.84769 | 33746 ft | 516 kts | 56° |
| 2026-04-25 21:47 | 64.71532 | -79.70226 | 33746 ft | 517 kts | 55° |
| 2026-04-25 21:48 | 64.75122 | -79.55632 | 33748 ft | 518 kts | 55° |
| 2026-04-25 21:48 | 64.78708 | -79.40954 | 33749 ft | 519 kts | 55° |
| 2026-04-25 21:49 | 64.82280 | -79.26235 | 33750 ft | 520 kts | 55° |
| 2026-04-25 21:49 | 64.85844 | -79.11451 | 33756 ft | 520 kts | 55° |
| 2026-04-25 21:50 | 64.88799 | -78.99117 | 33783 ft | 521 kts | 55° |
| 2026-04-25 21:50 | 64.92343 | -78.84232 | 33784 ft | 520 kts | 55° |
| 2026-04-25 21:51 | 64.95869 | -78.69318 | 33785 ft | 521 kts | 55° |
| 2026-04-25 21:51 | 64.99384 | -78.54350 | 33786 ft | 521 kts | 55° |
| 2026-04-25 21:52 | 65.02886 | -78.39333 | 33786 ft | 522 kts | 55° |
| 2026-04-25 21:52 | 65.06376 | -78.24264 | 33787 ft | 522 kts | 55° |
| 2026-04-25 21:53 | 65.09853 | -78.09144 | 33786 ft | 523 kts | 55° |
| 2026-04-25 21:53 | 65.13324 | -77.93944 | 33784 ft | 523 kts | 55° |
| 2026-04-25 21:54 | 65.16777 | -77.78717 | 33779 ft | 523 kts | 55° |
| 2026-04-25 21:54 | 65.20218 | -77.63439 | 33779 ft | 524 kts | 55° |
| 2026-04-25 21:55 | 65.23646 | -77.48105 | 33779 ft | 524 kts | 55° |
| 2026-04-25 21:55 | 65.27061 | -77.32721 | 33781 ft | 524 kts | 55° |
| 2026-04-25 21:56 | 65.30458 | -77.17308 | 33780 ft | 524 kts | 55° |
| 2026-04-25 21:56 | 65.33836 | -77.01868 | 33780 ft | 524 kts | 56° |
| 2026-04-25 21:57 | 65.37207 | -76.86346 | 33781 ft | 525 kts | 56° |
| 2026-04-25 21:57 | 65.40563 | -76.70783 | 33782 ft | 525 kts | 55° |
| 2026-04-25 21:58 | 65.43884 | -76.55269 | 33782 ft | 526 kts | 55° |
| 2026-04-25 21:58 | 65.47222 | -76.39560 | 33781 ft | 528 kts | 55° |
| 2026-04-25 21:59 | 65.50553 | -76.23764 | 33781 ft | 530 kts | 55° |
| 2026-04-25 21:59 | 65.53877 | -76.07889 | 33781 ft | 531 kts | 55° |
| 2026-04-25 22:00 | 65.58844 | -75.83933 | 33782 ft | 531 kts | 55° |
| 2026-04-25 22:00 | 65.62129 | -75.67937 | 33782 ft | 531 kts | 56° |
| 2026-04-25 22:01 | 65.65396 | -75.51912 | 33788 ft | 530 kts | 56° |
| 2026-04-25 22:01 | 65.68095 | -75.38574 | 33788 ft | 529 kts | 56° |
| 2026-04-25 22:02 | 65.71860 | -75.19829 | 33788 ft | 528 kts | 56° |
| 2026-04-25 22:02 | 65.75059 | -75.03768 | 33790 ft | 527 kts | 56° |
| 2026-04-25 22:03 | 65.78234 | -74.87700 | 33788 ft | 526 kts | 56° |
| 2026-04-25 22:03 | 65.81391 | -74.71597 | 33789 ft | 526 kts | 56° |
| 2026-04-25 22:04 | 65.84514 | -74.55547 | 33789 ft | 528 kts | 56° |
| 2026-04-25 22:04 | 65.87645 | -74.39326 | 33789 ft | 528 kts | 56° |
| 2026-04-25 22:05 | 65.90761 | -74.23056 | 33790 ft | 529 kts | 56° |
| 2026-04-25 22:05 | 65.93868 | -74.06703 | 33790 ft | 530 kts | 56° |
| 2026-04-25 22:06 | 65.96960 | -73.90297 | 33790 ft | 530 kts | 56° |
| 2026-04-25 22:06 | 66.00041 | -73.73823 | 33760 ft | 530 kts | 56° |
| 2026-04-25 22:07 | 66.02606 | -73.59994 | 33759 ft | 531 kts | 56° |
| 2026-04-25 22:07 | 66.06157 | -73.40697 | 33758 ft | 533 kts | 56° |
| 2026-04-25 22:08 | 66.09201 | -73.24006 | 33757 ft | 535 kts | 56° |
| 2026-04-25 22:08 | 66.12231 | -73.07256 | 33757 ft | 534 kts | 56° |
| 2026-04-25 22:09 | 66.15240 | -72.90481 | 33756 ft | 534 kts | 56° |
| 2026-04-25 22:09 | 66.18231 | -72.73665 | 33756 ft | 535 kts | 56° |
| 2026-04-25 22:10 | 66.21202 | -72.56820 | 33755 ft | 532 kts | 56° |
| 2026-04-25 22:10 | 66.24144 | -72.39996 | 33752 ft | 532 kts | 57° |
| 2026-04-25 22:11 | 66.27067 | -72.23140 | 33750 ft | 531 kts | 57° |
| 2026-04-25 22:11 | 66.29960 | -72.06310 | 33750 ft | 530 kts | 57° |
| 2026-04-25 22:12 | 66.32836 | -71.89431 | 33750 ft | 530 kts | 57° |
| 2026-04-25 22:12 | 66.35214 | -71.75367 | 33712 ft | 531 kts | 57° |
| 2026-04-25 22:13 | 66.38542 | -71.55507 | 33710 ft | 532 kts | 57° |
| 2026-04-25 22:13 | 66.41382 | -71.38402 | 33710 ft | 534 kts | 57° |
| 2026-04-25 22:14 | 66.44207 | -71.21229 | 33711 ft | 535 kts | 57° |
| 2026-04-25 22:14 | 66.47016 | -71.04002 | 33711 ft | 534 kts | 57° |
| 2026-04-25 22:15 | 66.49805 | -70.86743 | 33712 ft | 535 kts | 57° |
| 2026-04-25 22:16 | 66.53952 | -70.60790 | 33712 ft | 533 kts | 57° |
| 2026-04-25 22:16 | 66.56690 | -70.43460 | 33713 ft | 534 kts | 57° |
| 2026-04-25 22:17 | 66.59405 | -70.26112 | 33713 ft | 532 kts | 58° |
| 2026-04-25 22:17 | 66.62095 | -70.08765 | 33714 ft | 532 kts | 58° |
| 2026-04-25 22:18 | 66.64767 | -69.91373 | 33715 ft | 532 kts | 58° |
| 2026-04-25 22:18 | 66.67423 | -69.73921 | 33715 ft | 533 kts | 58° |
| 2026-04-25 22:19 | 66.70061 | -69.56416 | 33715 ft | 534 kts | 58° |
| 2026-04-25 22:19 | 66.72687 | -69.38832 | 33720 ft | 535 kts | 58° |
| 2026-04-25 22:20 | 66.75296 | -69.21194 | 33721 ft | 536 kts | 58° |
| 2026-04-25 22:20 | 66.77891 | -69.03476 | 33722 ft | 537 kts | 58° |
| 2026-04-25 22:21 | 66.80451 | -68.85826 | 33722 ft | 537 kts | 58° |
| 2026-04-25 22:21 | 66.83023 | -68.67917 | 33720 ft | 536 kts | 59° |
| 2026-04-25 22:22 | 66.85557 | -68.50095 | 33649 ft | 536 kts | 59° |
| 2026-04-25 22:22 | 66.88053 | -68.32364 | 33672 ft | 537 kts | 59° |
| 2026-04-25 22:23 | 66.90550 | -68.14444 | 33673 ft | 537 kts | 59° |
| 2026-04-25 22:23 | 66.93029 | -67.96481 | 33673 ft | 537 kts | 59° |
| 2026-04-25 22:24 | 66.95486 | -67.78485 | 33672 ft | 538 kts | 59° |
| 2026-04-25 22:24 | 66.97929 | -67.60408 | 33673 ft | 538 kts | 60° |
| 2026-04-25 22:25 | 67.00349 | -67.42311 | 33673 ft | 538 kts | 60° |
| 2026-04-25 22:25 | 67.02750 | -67.24164 | 33674 ft | 539 kts | 60° |
| 2026-04-25 22:26 | 67.05135 | -67.05955 | 33675 ft | 539 kts | 60° |
| 2026-04-25 22:26 | 67.07499 | -66.87705 | 33677 ft | 541 kts | 61° |
| 2026-04-25 22:27 | 67.09851 | -66.69355 | 33679 ft | 542 kts | 61° |
| 2026-04-25 22:27 | 67.12184 | -66.50940 | 33681 ft | 542 kts | 61° |
| 2026-04-25 22:28 | 67.14496 | -66.32498 | 33685 ft | 542 kts | 62° |
| 2026-04-25 22:28 | 67.16789 | -66.14008 | 33688 ft | 544 kts | 62° |
| 2026-04-25 22:29 | 67.19071 | -65.95391 | 33693 ft | 544 kts | 62° |
| 2026-04-25 22:29 | 67.21327 | -65.76778 | 33697 ft | 543 kts | 63° |
| 2026-04-25 22:30 | 67.24662 | -65.48851 | 33703 ft | 542 kts | 63° |
| 2026-04-25 22:30 | 67.26487 | -65.33366 | 33707 ft | 541 kts | 63° |
| 2026-04-25 22:31 | 67.29022 | -65.11603 | 33714 ft | 541 kts | 64° |
| 2026-04-25 22:31 | 67.31168 | -64.92937 | 33718 ft | 540 kts | 64° |
| 2026-04-25 22:32 | 67.33288 | -64.74285 | 33722 ft | 539 kts | 64° |
| 2026-04-25 22:32 | 67.35386 | -64.55603 | 33724 ft | 539 kts | 65° |
| 2026-04-25 22:33 | 67.37108 | -64.40098 | 33726 ft | 539 kts | 65° |
| 2026-04-25 22:33 | 67.39165 | -64.21365 | 33728 ft | 539 kts | 66° |
| 2026-04-25 22:34 | 67.41201 | -64.02594 | 33720 ft | 540 kts | 66° |
| 2026-04-25 22:34 | 67.43214 | -63.83800 | 33719 ft | 538 kts | 66° |
| 2026-04-25 22:35 | 67.45200 | -63.65018 | 33719 ft | 538 kts | 67° |
| 2026-04-25 22:35 | 67.47166 | -63.46188 | 33717 ft | 537 kts | 67° |
| 2026-04-25 22:36 | 67.49105 | -63.27378 | 33716 ft | 537 kts | 67° |
| 2026-04-25 22:36 | 67.51019 | -63.08579 | 33714 ft | 535 kts | 67° |
| 2026-04-25 22:37 | 67.52909 | -62.89764 | 33711 ft | 535 kts | 68° |
| 2026-04-25 22:37 | 67.54776 | -62.70937 | 33713 ft | 534 kts | 68° |
| 2026-04-25 22:38 | 67.56619 | -62.52104 | 33713 ft | 534 kts | 69° |
| 2026-04-25 22:38 | 67.58439 | -62.33246 | 33711 ft | 534 kts | 69° |
| 2026-04-25 22:39 | 67.60238 | -62.14356 | 33701 ft | 534 kts | 70° |
| 2026-04-25 22:39 | 67.62015 | -61.95426 | 33697 ft | 535 kts | 70° |
| 2026-04-25 22:40 | 67.63773 | -61.76442 | 33691 ft | 535 kts | 70° |
| 2026-04-25 22:40 | 67.65508 | -61.57437 | 33685 ft | 535 kts | 70° |
| 2026-04-25 22:41 | 67.67221 | -61.38394 | 33679 ft | 535 kts | 70° |
| 2026-04-25 22:41 | 67.68911 | -61.19345 | 33672 ft | 534 kts | 70° |
| 2026-04-25 22:42 | 67.70577 | -61.00291 | 33665 ft | 534 kts | 71° |
| 2026-04-25 22:42 | 67.72221 | -60.81208 | 33657 ft | 534 kts | 71° |
| 2026-04-25 22:43 | 67.73840 | -60.62125 | 33650 ft | 533 kts | 72° |
| 2026-04-25 22:43 | 67.75438 | -60.43017 | 33641 ft | 533 kts | 72° |
| 2026-04-25 22:44 | 67.77009 | -60.23920 | 33632 ft | 532 kts | 73° |
| 2026-04-25 22:44 | 67.78556 | -60.04819 | 33623 ft | 532 kts | 73° |
| 2026-04-25 22:45 | 67.80081 | -59.85684 | 33613 ft | 532 kts | 73° |
| 2026-04-25 22:45 | 67.81586 | -59.66505 | 33603 ft | 533 kts | 73° |
| 2026-04-25 22:46 | 67.83068 | -59.47301 | 33593 ft | 533 kts | 73° |
| 2026-04-25 22:46 | 67.84530 | -59.28049 | 33583 ft | 533 kts | 73° |
| 2026-04-25 22:47 | 67.85970 | -59.08777 | 33572 ft | 534 kts | 74° |
| 2026-04-25 22:47 | 67.87388 | -58.89444 | 33560 ft | 534 kts | 74° |
| 2026-04-25 22:48 | 67.88783 | -58.70117 | 33550 ft | 533 kts | 75° |
| 2026-04-25 22:48 | 67.90154 | -58.50792 | 33539 ft | 533 kts | 75° |
| 2026-04-25 22:49 | 67.91502 | -58.31434 | 33522 ft | 533 kts | 76° |
| 2026-04-25 22:49 | 67.92827 | -58.12049 | 33510 ft | 533 kts | 76° |
| 2026-04-25 22:50 | 67.94129 | -57.92650 | 33498 ft | 533 kts | 76° |
| 2026-04-25 22:50 | 67.95409 | -57.73226 | 33486 ft | 533 kts | 76° |
| 2026-04-25 22:51 | 67.96666 | -57.53772 | 33475 ft | 533 kts | 76° |
| 2026-04-25 22:51 | 67.97286 | -57.44051 | 33592 ft | 533 kts | 77° |
| 2026-04-25 22:51 | 67.97901 | -57.34305 | 33825 ft | 533 kts | 77° |
| 2026-04-25 22:52 | 67.98510 | -57.24563 | 34128 ft | 532 kts | 77° |
| 2026-04-25 22:52 | 67.99111 | -57.14841 | 34332 ft | 533 kts | 77° |
| 2026-04-25 22:52 | 67.99707 | -57.05108 | 34610 ft | 531 kts | 77° |
| 2026-04-25 22:52 | 68.00099 | -56.98658 | 34772 ft | 531 kts | 77° |
| 2026-04-25 22:53 | 68.00881 | -56.85664 | 35040 ft | 531 kts | 78° |
| 2026-04-25 22:53 | 68.01460 | -56.75918 | 35226 ft | 532 kts | 78° |
| 2026-04-25 22:53 | 68.02032 | -56.66175 | 35409 ft | 532 kts | 78° |
| 2026-04-25 22:53 | 68.02599 | -56.56428 | 35423 ft | 531 kts | 78° |
| 2026-04-25 22:54 | 68.03715 | -56.36930 | 35415 ft | 531 kts | 79° |
| 2026-04-25 22:54 | 68.04808 | -56.17403 | 35404 ft | 532 kts | 79° |
| 2026-04-25 22:55 | 68.05881 | -55.97834 | 35394 ft | 532 kts | 79° |
| 2026-04-25 22:55 | 68.06930 | -55.78251 | 35386 ft | 532 kts | 79° |
| 2026-04-25 22:56 | 68.07957 | -55.58649 | 35377 ft | 532 kts | 79° |
| 2026-04-25 22:56 | 68.08960 | -55.39054 | 35370 ft | 531 kts | 80° |
| 2026-04-25 22:57 | 68.09939 | -55.19462 | 35363 ft | 530 kts | 80° |
| 2026-04-25 22:57 | 68.10895 | -54.99881 | 35355 ft | 530 kts | 81° |
| 2026-04-25 22:58 | 68.11827 | -54.80286 | 35349 ft | 530 kts | 81° |
| 2026-04-25 22:58 | 68.12732 | -54.60800 | 35343 ft | 530 kts | 81° |
| 2026-04-25 22:59 | 68.13620 | -54.41192 | 35337 ft | 529 kts | 82° |
| 2026-04-25 22:59 | 68.14484 | -54.21596 | 35332 ft | 529 kts | 82° |
| 2026-04-25 23:00 | 68.15328 | -54.01978 | 35327 ft | 529 kts | 82° |
| 2026-04-25 23:00 | 68.16150 | -53.82351 | 35323 ft | 529 kts | 82° |
| 2026-04-25 23:01 | 68.16953 | -53.62709 | 35318 ft | 529 kts | 82° |
| 2026-04-25 23:01 | 68.17736 | -53.43035 | 35314 ft | 529 kts | 83° |
| 2026-04-25 23:02 | 68.18501 | -53.23375 | 35310 ft | 529 kts | 83° |
| 2026-04-25 23:02 | 68.19926 | -53.04053 | 35309 ft | 527 kts | 71° |
| 2026-04-25 23:03 | 68.21472 | -52.84822 | 35300 ft | 527 kts | 86° |
| 2026-04-25 23:03 | 68.21846 | -52.65093 | 35302 ft | 528 kts | 81° |
| 2026-04-25 23:04 | 68.22547 | -52.48609 | 35291 ft | 529 kts | 86° |
| 2026-04-25 23:04 | 68.22358 | -52.25751 | 35296 ft | 528 kts | 101° |
| 2026-04-25 23:05 | 68.20842 | -52.06382 | 35285 ft | 529 kts | 104° |
| 2026-04-25 23:05 | 68.18998 | -51.87229 | 35283 ft | 528 kts | 106° |
| 2026-04-25 23:06 | 68.17098 | -51.68170 | 35282 ft | 528 kts | 106° |
| 2026-04-25 23:06 | 68.15173 | -51.49017 | 35259 ft | 527 kts | 107° |
| 2026-04-25 23:07 | 68.13371 | -51.30074 | 35259 ft | 527 kts | 105° |
| 2026-04-25 23:07 | 68.11576 | -51.11052 | 35259 ft | 526 kts | 106° |
| 2026-04-25 23:08 | 68.09665 | -50.92011 | 35251 ft | 525 kts | 107° |
| 2026-04-25 23:08 | 68.07811 | -50.73116 | 35253 ft | 524 kts | 105° |
| 2026-04-25 23:09 | 68.05899 | -50.54303 | 35256 ft | 524 kts | 108° |
| 2026-04-25 23:09 | 68.03870 | -50.35571 | 35255 ft | 525 kts | 108° |
| 2026-04-25 23:10 | 68.01835 | -50.16862 | 35255 ft | 525 kts | 108° |
| 2026-04-25 23:10 | 68.00408 | -49.97820 | 35246 ft | 526 kts | 94° |
| 2026-04-25 23:11 | 68.00502 | -49.78296 | 35257 ft | 528 kts | 87° |
| 2026-04-25 23:11 | 68.01031 | -49.58899 | 35254 ft | 528 kts | 86° |
| 2026-04-25 23:12 | 68.01532 | -49.39353 | 35254 ft | 527 kts | 86° |
| 2026-04-25 23:12 | 68.01966 | -49.19846 | 35253 ft | 527 kts | 87° |
| 2026-04-25 23:13 | 68.02433 | -49.00335 | 35253 ft | 527 kts | 85° |
| 2026-04-25 23:13 | 68.02976 | -48.84014 | 35253 ft | 527 kts | 85° |
| 2026-04-25 23:14 | 68.03501 | -48.64487 | 35252 ft | 528 kts | 86° |
| 2026-04-25 23:14 | 68.03947 | -48.44914 | 35251 ft | 528 kts | 87° |
| 2026-04-25 23:15 | 68.04352 | -48.25345 | 35251 ft | 528 kts | 88° |
| 2026-04-25 23:15 | 68.04730 | -48.05750 | 35250 ft | 528 kts | 88° |
| 2026-04-25 23:16 | 68.05083 | -47.86130 | 35249 ft | 528 kts | 88° |
| 2026-04-25 23:16 | 68.05411 | -47.66518 | 35249 ft | 528 kts | 88° |
| 2026-04-25 23:17 | 68.05716 | -47.46922 | 35248 ft | 527 kts | 88° |
| 2026-04-25 23:17 | 68.05997 | -47.27316 | 35247 ft | 527 kts | 89° |
| 2026-04-25 23:18 | 68.06255 | -47.07741 | 35247 ft | 526 kts | 89° |
| 2026-04-25 23:18 | 68.06489 | -46.88189 | 35246 ft | 525 kts | 89° |
| 2026-04-25 23:19 | 68.06700 | -46.68664 | 35245 ft | 525 kts | 90° |
| 2026-04-25 23:19 | 68.06888 | -46.49124 | 35244 ft | 526 kts | 90° |
| 2026-04-25 23:20 | 68.07053 | -46.29590 | 35243 ft | 526 kts | 90° |
| 2026-04-25 23:20 | 68.07193 | -46.10167 | 35242 ft | 526 kts | 90° |
| 2026-04-25 23:21 | 68.07312 | -45.90595 | 35241 ft | 526 kts | 90° |
| 2026-04-25 23:21 | 68.07407 | -45.71048 | 35240 ft | 526 kts | 91° |
| 2026-04-25 23:22 | 68.07480 | -45.51505 | 35239 ft | 525 kts | 91° |
| 2026-04-25 23:23 | 68.07545 | -45.22207 | 35218 ft | 524 kts | 91° |
| 2026-04-25 23:23 | 68.07560 | -45.02680 | 35217 ft | 525 kts | 92° |
| 2026-04-25 23:24 | 68.07552 | -44.83153 | 35214 ft | 525 kts | 92° |
| 2026-04-25 23:24 | 68.07521 | -44.63617 | 35211 ft | 525 kts | 92° |
| 2026-04-25 23:25 | 68.07466 | -44.44065 | 35208 ft | 526 kts | 93° |
| 2026-04-25 23:25 | 68.07388 | -44.24498 | 35205 ft | 526 kts | 93° |
| 2026-04-25 23:26 | 68.07288 | -44.04964 | 35201 ft | 525 kts | 93° |
| 2026-04-25 23:26 | 68.07164 | -43.85405 | 35198 ft | 525 kts | 93° |
| 2026-04-25 23:27 | 68.07017 | -43.65878 | 35163 ft | 525 kts | 94° |
| 2026-04-25 23:27 | 68.06848 | -43.46477 | 35129 ft | 525 kts | 94° |
| 2026-04-25 23:28 | 68.06656 | -43.26953 | 35124 ft | 525 kts | 94° |
| 2026-04-25 23:28 | 68.06438 | -43.07282 | 35119 ft | 526 kts | 94° |
| 2026-04-25 23:29 | 68.06201 | -42.87859 | 35115 ft | 526 kts | 95° |
| 2026-04-25 23:29 | 68.05936 | -42.68159 | 35111 ft | 527 kts | 95° |
| 2026-04-25 23:30 | 68.05650 | -42.48574 | 35107 ft | 527 kts | 96° |
| 2026-04-25 23:30 | 68.05340 | -42.28975 | 35101 ft | 528 kts | 96° |
| 2026-04-25 23:31 | 68.05010 | -42.09512 | 35098 ft | 528 kts | 96° |
| 2026-04-25 23:31 | 68.04651 | -41.89766 | 35094 ft | 528 kts | 96° |
| 2026-04-25 23:32 | 68.04271 | -41.70175 | 35090 ft | 528 kts | 96° |
| 2026-04-25 23:32 | 68.03869 | -41.50607 | 35086 ft | 527 kts | 97° |
| 2026-04-25 23:33 | 68.03444 | -41.31066 | 35083 ft | 527 kts | 97° |
| 2026-04-25 23:33 | 68.02996 | -41.11508 | 35079 ft | 528 kts | 97° |
| 2026-04-25 23:34 | 68.02525 | -40.91954 | 35065 ft | 528 kts | 98° |
| 2026-04-25 23:34 | 68.02133 | -40.72371 | 35058 ft | 528 kts | 97° |
| 2026-04-25 23:35 | 68.01629 | -40.52935 | 35054 ft | 529 kts | 99° |
| 2026-04-25 23:35 | 68.01030 | -40.33387 | 35051 ft | 528 kts | 99° |
| 2026-04-25 23:36 | 68.00427 | -40.13862 | 35049 ft | 528 kts | 99° |
| 2026-04-25 23:36 | 68.00124 | -39.94256 | 35046 ft | 532 kts | 92° |
| 2026-04-25 23:37 | 68.00595 | -39.74515 | 35045 ft | 535 kts | 89° |
| 2026-04-25 23:37 | 68.01159 | -39.54732 | 35043 ft | 535 kts | 90° |
| 2026-04-25 23:38 | 68.01639 | -39.34953 | 35041 ft | 534 kts | 90° |
| 2026-04-25 23:38 | 68.02064 | -39.15169 | 35040 ft | 534 kts | 90° |
| 2026-04-25 23:39 | 68.02604 | -38.95375 | 35037 ft | 534 kts | 88° |
| 2026-04-25 23:39 | 68.03216 | -38.75612 | 35036 ft | 534 kts | 89° |
| 2026-04-25 23:40 | 68.03705 | -38.55808 | 35035 ft | 534 kts | 90° |
| 2026-04-25 23:40 | 68.04135 | -38.36026 | 35034 ft | 533 kts | 90° |
| 2026-04-25 23:41 | 68.04531 | -38.16216 | 35032 ft | 533 kts | 91° |
| 2026-04-25 23:41 | 68.04900 | -37.96442 | 35031 ft | 533 kts | 91° |
| 2026-04-25 23:42 | 68.05244 | -37.76669 | 35030 ft | 533 kts | 91° |
| 2026-04-25 23:42 | 68.05564 | -37.56886 | 35029 ft | 533 kts | 91° |
| 2026-04-25 23:43 | 68.05859 | -37.37098 | 35028 ft | 532 kts | 91° |
| 2026-04-25 23:43 | 68.06131 | -37.17338 | 35027 ft | 531 kts | 92° |
| 2026-04-25 23:44 | 68.06379 | -36.97590 | 35039 ft | 531 kts | 92° |
| 2026-04-25 23:44 | 68.06604 | -36.77830 | 35040 ft | 531 kts | 92° |
| 2026-04-25 23:45 | 68.06804 | -36.58097 | 35039 ft | 530 kts | 93° |
| 2026-04-25 23:45 | 68.06981 | -36.38391 | 35039 ft | 530 kts | 94° |
| 2026-04-25 23:46 | 68.07134 | -36.18677 | 35038 ft | 529 kts | 94° |
| 2026-04-25 23:46 | 68.07264 | -35.99008 | 35038 ft | 529 kts | 94° |
| 2026-04-25 23:47 | 68.07369 | -35.79439 | 35038 ft | 529 kts | 94° |
| 2026-04-25 23:47 | 68.07452 | -35.59765 | 35037 ft | 529 kts | 94° |
| 2026-04-25 23:48 | 68.07511 | -35.40062 | 35038 ft | 530 kts | 94° |
| 2026-04-25 23:48 | 68.07547 | -35.20324 | 35036 ft | 530 kts | 94° |
| 2026-04-25 23:49 | 68.07559 | -35.00590 | 35036 ft | 531 kts | 94° |
| 2026-04-25 23:49 | 68.07549 | -34.80793 | 35037 ft | 533 kts | 94° |
| 2026-04-25 23:50 | 68.07514 | -34.60954 | 35037 ft | 533 kts | 94° |
| 2026-04-25 23:50 | 68.07455 | -34.41104 | 35037 ft | 533 kts | 95° |
| 2026-04-25 23:51 | 68.07373 | -34.21254 | 35037 ft | 534 kts | 95° |
| 2026-04-25 23:51 | 68.07266 | -34.01363 | 35037 ft | 534 kts | 95° |
| 2026-04-25 23:52 | 68.07136 | -33.81494 | 35037 ft | 534 kts | 95° |
| 2026-04-25 23:52 | 68.06982 | -33.61629 | 35038 ft | 534 kts | 95° |
| 2026-04-25 23:53 | 68.06804 | -33.41813 | 35038 ft | 533 kts | 95° |
| 2026-04-25 23:53 | 68.06603 | -33.21999 | 35038 ft | 532 kts | 96° |
| 2026-04-25 23:54 | 68.06379 | -33.02261 | 35038 ft | 530 kts | 96° |
| 2026-04-25 23:54 | 68.06132 | -32.82609 | 35039 ft | 528 kts | 96° |
| 2026-04-25 23:55 | 68.05863 | -32.63032 | 35040 ft | 526 kts | 96° |
| 2026-04-25 23:55 | 68.05573 | -32.43553 | 35040 ft | 524 kts | 96° |
| 2026-04-25 23:56 | 68.05262 | -32.24260 | 35042 ft | 522 kts | 96° |
| 2026-04-25 23:56 | 68.04928 | -32.04898 | 35043 ft | 521 kts | 97° |
| 2026-04-25 23:57 | 68.04631 | -31.88714 | 35043 ft | 521 kts | 97° |
| 2026-04-25 23:57 | 68.04256 | -31.69396 | 35043 ft | 521 kts | 97° |
| 2026-04-25 23:58 | 68.03791 | -31.46911 | 35043 ft | 522 kts | 97° |
| 2026-04-25 23:58 | 68.03436 | -31.30680 | 35044 ft | 523 kts | 97° |
| 2026-04-25 23:59 | 68.02991 | -31.11283 | 35045 ft | 523 kts | 97° |
| 2026-04-25 23:59 | 68.02523 | -30.91899 | 35046 ft | 524 kts | 98° |
| 2026-04-26 00:00 | 68.02134 | -30.72440 | 35047 ft | 524 kts | 97° |
| 2026-04-26 00:00 | 68.01635 | -30.53179 | 35046 ft | 523 kts | 98° |
| 2026-04-26 00:01 | 68.01045 | -30.33871 | 35047 ft | 522 kts | 98° |
| 2026-04-26 00:01 | 68.00449 | -30.14576 | 35047 ft | 522 kts | 98° |
| 2026-04-26 00:02 | 67.99748 | -29.95352 | 35048 ft | 520 kts | 102° |
| 2026-04-26 00:02 | 67.98492 | -29.76405 | 35048 ft | 518 kts | 105° |
| 2026-04-26 00:03 | 67.97082 | -29.57640 | 35049 ft | 517 kts | 105° |
| 2026-04-26 00:03 | 67.95677 | -29.38879 | 35049 ft | 517 kts | 105° |
| 2026-04-26 00:04 | 67.94256 | -29.20135 | 35051 ft | 516 kts | 106° |
| 2026-04-26 00:04 | 67.92898 | -29.01402 | 35051 ft | 517 kts | 104° |
| 2026-04-26 00:05 | 67.91688 | -28.82538 | 35052 ft | 518 kts | 104° |
| 2026-04-26 00:05 | 67.90357 | -28.63724 | 35052 ft | 518 kts | 105° |
| 2026-04-26 00:06 | 67.88962 | -28.44971 | 35053 ft | 518 kts | 105° |
| 2026-04-26 00:06 | 67.87532 | -28.26220 | 35053 ft | 519 kts | 106° |
| 2026-04-26 00:07 | 67.86073 | -28.07465 | 35053 ft | 519 kts | 106° |
| 2026-04-26 00:07 | 67.84594 | -27.88771 | 35054 ft | 519 kts | 106° |
| 2026-04-26 00:08 | 67.83093 | -27.70089 | 35054 ft | 518 kts | 107° |
| 2026-04-26 00:08 | 67.81569 | -27.51421 | 35054 ft | 518 kts | 107° |
| 2026-04-26 00:09 | 67.80028 | -27.32833 | 35055 ft | 517 kts | 107° |
| 2026-04-26 00:09 | 67.78466 | -27.14268 | 35055 ft | 518 kts | 107° |
| 2026-04-26 00:10 | 67.76884 | -26.95738 | 35055 ft | 517 kts | 107° |
| 2026-04-26 00:10 | 67.75291 | -26.77342 | 35055 ft | 518 kts | 107° |
| 2026-04-26 00:11 | 67.73663 | -26.58818 | 35056 ft | 519 kts | 107° |
| 2026-04-26 00:11 | 67.72012 | -26.40289 | 35056 ft | 520 kts | 108° |
| 2026-04-26 00:12 | 67.70337 | -26.21763 | 35057 ft | 520 kts | 108° |
| 2026-04-26 00:12 | 67.68637 | -26.03219 | 35057 ft | 521 kts | 108° |
| 2026-04-26 00:13 | 67.66917 | -25.84708 | 35057 ft | 521 kts | 108° |
| 2026-04-26 00:13 | 67.65177 | -25.66239 | 35058 ft | 520 kts | 108° |
| 2026-04-26 00:14 | 67.63419 | -25.47819 | 35058 ft | 519 kts | 108° |
| 2026-04-26 00:14 | 67.61643 | -25.29463 | 35058 ft | 518 kts | 109° |
| 2026-04-26 00:15 | 67.59848 | -25.11149 | 35058 ft | 518 kts | 109° |
| 2026-04-26 00:15 | 67.58037 | -24.92907 | 35058 ft | 518 kts | 109° |
| 2026-04-26 00:16 | 67.56203 | -24.74667 | 35059 ft | 518 kts | 109° |
| 2026-04-26 00:16 | 67.54348 | -24.56452 | 35059 ft | 518 kts | 109° |
| 2026-04-26 00:17 | 67.52470 | -24.38247 | 35058 ft | 519 kts | 109° |
| 2026-04-26 00:17 | 67.50569 | -24.20035 | 35059 ft | 520 kts | 109° |
| 2026-04-26 00:18 | 67.48644 | -24.01834 | 35059 ft | 520 kts | 110° |
| 2026-04-26 00:18 | 67.46701 | -23.83673 | 35059 ft | 520 kts | 110° |
| 2026-04-26 00:19 | 67.44736 | -23.65525 | 35060 ft | 520 kts | 110° |
| 2026-04-26 00:19 | 67.42755 | -23.47451 | 35060 ft | 519 kts | 110° |
| 2026-04-26 00:20 | 67.40753 | -23.29406 | 35060 ft | 518 kts | 110° |
| 2026-04-26 00:20 | 67.38732 | -23.11393 | 35060 ft | 519 kts | 110° |
| 2026-04-26 00:21 | 67.36690 | -22.93402 | 35077 ft | 519 kts | 110° |
| 2026-04-26 00:21 | 67.34627 | -22.75438 | 35080 ft | 519 kts | 110° |
| 2026-04-26 00:22 | 67.32545 | -22.57502 | 35080 ft | 520 kts | 110° |
| 2026-04-26 00:22 | 67.30441 | -22.39594 | 35079 ft | 520 kts | 111° |
| 2026-04-26 00:23 | 67.28317 | -22.21710 | 35079 ft | 520 kts | 111° |
| 2026-04-26 00:23 | 67.26172 | -22.03845 | 35079 ft | 520 kts | 111° |
| 2026-04-26 00:24 | 67.24008 | -21.86024 | 35081 ft | 520 kts | 111° |
| 2026-04-26 00:24 | 67.21821 | -21.68204 | 35089 ft | 521 kts | 111° |
| 2026-04-26 00:25 | 67.19612 | -21.50404 | 35088 ft | 521 kts | 111° |
| 2026-04-26 00:25 | 67.17389 | -21.32674 | 35087 ft | 520 kts | 111° |
| 2026-04-26 00:26 | 67.15163 | -21.15110 | 35088 ft | 519 kts | 111° |
| 2026-04-26 00:26 | 67.12904 | -20.97467 | 35088 ft | 519 kts | 111° |
| 2026-04-26 00:27 | 67.10627 | -20.79866 | 35087 ft | 519 kts | 111° |
| 2026-04-26 00:27 | 67.08443 | -20.62220 | 35087 ft | 519 kts | 111° |
| 2026-04-26 00:28 | 67.06100 | -20.44695 | 35087 ft | 519 kts | 112° |
| 2026-04-26 00:28 | 67.03725 | -20.27258 | 35086 ft | 518 kts | 112° |
| 2026-04-26 00:29 | 67.01346 | -20.09854 | 35086 ft | 518 kts | 112° |
| 2026-04-26 00:29 | 66.98928 | -19.92527 | 35085 ft | 517 kts | 114° |
| 2026-04-26 00:30 | 66.96215 | -19.75548 | 35085 ft | 516 kts | 116° |
| 2026-04-26 00:30 | 66.93458 | -19.58672 | 35085 ft | 515 kts | 116° |
| 2026-04-26 00:31 | 66.90699 | -19.41832 | 35085 ft | 514 kts | 116° |
| 2026-04-26 00:31 | 66.87924 | -19.25039 | 35085 ft | 514 kts | 116° |
| 2026-04-26 00:32 | 66.85247 | -19.08200 | 35084 ft | 514 kts | 114° |
| 2026-04-26 00:32 | 66.81288 | -18.82897 | 35085 ft | 514 kts | 115° |
| 2026-04-26 00:33 | 66.78634 | -18.66624 | 35085 ft | 513 kts | 116° |
| 2026-04-26 00:33 | 66.75877 | -18.49980 | 35087 ft | 511 kts | 116° |
| 2026-04-26 00:34 | 66.73116 | -18.33491 | 35084 ft | 508 kts | 116° |
| 2026-04-26 00:34 | 66.70344 | -18.17089 | 35083 ft | 507 kts | 116° |
| 2026-04-26 00:35 | 66.67556 | -18.00736 | 35088 ft | 506 kts | 116° |
| 2026-04-26 00:35 | 66.64759 | -17.84466 | 35093 ft | 506 kts | 116° |
| 2026-04-26 00:36 | 66.61943 | -17.68223 | 35094 ft | 506 kts | 116° |
| 2026-04-26 00:36 | 66.59110 | -17.52014 | 35094 ft | 506 kts | 116° |
| 2026-04-26 00:37 | 66.56260 | -17.35843 | 35094 ft | 506 kts | 117° |
| 2026-04-26 00:37 | 66.53390 | -17.19685 | 35095 ft | 507 kts | 117° |
| 2026-04-26 00:38 | 66.50520 | -17.03663 | 35096 ft | 507 kts | 117° |
| 2026-04-26 00:38 | 66.47599 | -16.87482 | 35097 ft | 506 kts | 117° |
| 2026-04-26 00:39 | 66.45176 | -16.74164 | 35098 ft | 506 kts | 117° |
| 2026-04-26 00:39 | 66.42248 | -16.58179 | 35099 ft | 506 kts | 117° |
| 2026-04-26 00:40 | 66.38828 | -16.39671 | 35101 ft | 504 kts | 117° |
| 2026-04-26 00:40 | 66.36360 | -16.26417 | 35103 ft | 502 kts | 117° |
| 2026-04-26 00:41 | 66.33405 | -16.10663 | 35104 ft | 501 kts | 117° |
| 2026-04-26 00:41 | 66.30442 | -15.94986 | 35107 ft | 501 kts | 117° |
| 2026-04-26 00:42 | 66.27463 | -15.79343 | 35109 ft | 500 kts | 118° |
| 2026-04-26 00:42 | 66.24466 | -15.63728 | 35112 ft | 501 kts | 118° |
| 2026-04-26 00:43 | 66.21472 | -15.48245 | 35114 ft | 502 kts | 118° |
| 2026-04-26 00:43 | 66.18413 | -15.32546 | 35117 ft | 503 kts | 118° |
| 2026-04-26 00:44 | 66.15354 | -15.16967 | 35119 ft | 504 kts | 118° |
| 2026-04-26 00:44 | 66.12271 | -15.01380 | 35122 ft | 505 kts | 118° |
| 2026-04-26 00:45 | 66.09174 | -14.85842 | 35124 ft | 505 kts | 118° |
| 2026-04-26 00:45 | 66.06063 | -14.70348 | 35126 ft | 504 kts | 118° |
| 2026-04-26 00:46 | 66.02942 | -14.54923 | 35128 ft | 503 kts | 118° |
| 2026-04-26 00:46 | 65.99813 | -14.39569 | 35129 ft | 502 kts | 118° |
| 2026-04-26 00:47 | 65.96683 | -14.24321 | 35142 ft | 499 kts | 118° |
| 2026-04-26 00:47 | 65.93539 | -14.09116 | 35144 ft | 500 kts | 119° |
| 2026-04-26 00:48 | 65.90375 | -13.93922 | 35144 ft | 501 kts | 119° |
| 2026-04-26 00:48 | 65.87197 | -13.78773 | 35144 ft | 500 kts | 119° |
| 2026-04-26 00:49 | 65.84009 | -13.63683 | 35144 ft | 499 kts | 119° |
| 2026-04-26 00:49 | 65.80809 | -13.48647 | 35144 ft | 499 kts | 119° |
| 2026-04-26 00:50 | 65.77604 | -13.33691 | 35144 ft | 497 kts | 119° |
| 2026-04-26 00:50 | 65.74390 | -13.18795 | 35145 ft | 497 kts | 119° |
| 2026-04-26 00:51 | 65.71163 | -13.03950 | 35140 ft | 496 kts | 120° |
| 2026-04-26 00:51 | 65.67946 | -12.89245 | 35140 ft | 497 kts | 120° |
| 2026-04-26 00:52 | 65.64690 | -12.74469 | 35140 ft | 497 kts | 120° |
| 2026-04-26 00:52 | 65.61395 | -12.59620 | 35140 ft | 498 kts | 120° |
| 2026-04-26 00:53 | 65.58126 | -12.44985 | 35140 ft | 498 kts | 120° |
| 2026-04-26 00:53 | 65.54796 | -12.30180 | 35142 ft | 499 kts | 120° |
| 2026-04-26 00:54 | 65.51495 | -12.15608 | 35142 ft | 498 kts | 121° |
| 2026-04-26 00:54 | 65.48157 | -12.00967 | 35142 ft | 498 kts | 121° |
| 2026-04-26 00:55 | 65.44804 | -11.86360 | 35144 ft | 499 kts | 121° |
| 2026-04-26 00:55 | 65.41432 | -11.71768 | 35144 ft | 499 kts | 121° |
| 2026-04-26 00:56 | 65.38050 | -11.57234 | 35146 ft | 498 kts | 121° |
| 2026-04-26 00:56 | 65.34663 | -11.42773 | 35147 ft | 497 kts | 121° |
| 2026-04-26 00:57 | 65.31266 | -11.28366 | 35148 ft | 497 kts | 121° |
| 2026-04-26 00:57 | 65.27860 | -11.14014 | 35155 ft | 496 kts | 121° |
| 2026-04-26 00:58 | 65.24437 | -10.99689 | 35158 ft | 496 kts | 122° |
| 2026-04-26 00:58 | 65.21005 | -10.85416 | 35160 ft | 496 kts | 122° |
| 2026-04-26 00:59 | 65.17557 | -10.71166 | 35162 ft | 496 kts | 122° |
| 2026-04-26 00:59 | 65.14162 | -10.56869 | 35164 ft | 496 kts | 121° |
| 2026-04-26 01:00 | 65.10695 | -10.42689 | 35166 ft | 496 kts | 122° |
| 2026-04-26 01:00 | 65.07180 | -10.28609 | 35168 ft | 496 kts | 122° |
| 2026-04-26 01:01 | 65.03656 | -10.14557 | 35171 ft | 496 kts | 123° |
| 2026-04-26 01:01 | 65.00219 | -10.00403 | 35173 ft | 496 kts | 117° |
| 2026-04-26 01:02 | 64.97565 | -9.85294 | 35177 ft | 500 kts | 112° |
| 2026-04-26 01:02 | 64.95189 | -9.69857 | 35179 ft | 500 kts | 111° |
| 2026-04-26 01:03 | 64.92760 | -9.54475 | 35182 ft | 500 kts | 112° |
| 2026-04-26 01:03 | 64.90288 | -9.39172 | 35184 ft | 500 kts | 112° |
| 2026-04-26 01:04 | 64.87784 | -9.23888 | 35187 ft | 501 kts | 112° |
| 2026-04-26 01:04 | 64.85433 | -9.08466 | 35190 ft | 501 kts | 111° |
| 2026-04-26 01:05 | 64.83028 | -8.93106 | 35192 ft | 501 kts | 112° |
| 2026-04-26 01:05 | 64.80559 | -8.77810 | 35206 ft | 501 kts | 112° |
| 2026-04-26 01:06 | 64.78056 | -8.62547 | 35208 ft | 501 kts | 113° |
| 2026-04-26 01:06 | 64.75530 | -8.47312 | 35210 ft | 501 kts | 113° |
| 2026-04-26 01:07 | 64.72988 | -8.32116 | 35212 ft | 501 kts | 114° |
| 2026-04-26 01:07 | 64.70448 | -8.17062 | 35215 ft | 500 kts | 114° |
| 2026-04-26 01:08 | 64.67877 | -8.01944 | 35217 ft | 500 kts | 114° |
| 2026-04-26 01:08 | 64.65290 | -7.86854 | 35220 ft | 502 kts | 114° |
| 2026-04-26 01:09 | 64.62681 | -7.71751 | 35222 ft | 502 kts | 114° |
| 2026-04-26 01:09 | 64.60053 | -7.56658 | 35225 ft | 503 kts | 115° |
| 2026-04-26 01:10 | 64.57407 | -7.41584 | 35226 ft | 503 kts | 115° |
| 2026-04-26 01:10 | 64.54744 | -7.26525 | 35230 ft | 504 kts | 115° |
| 2026-04-26 01:11 | 64.52062 | -7.11476 | 35231 ft | 505 kts | 115° |
| 2026-04-26 01:11 | 64.49357 | -6.96412 | 35233 ft | 506 kts | 115° |
| 2026-04-26 01:12 | 64.46633 | -6.81357 | 35234 ft | 506 kts | 115° |
| 2026-04-26 01:12 | 64.43890 | -6.66317 | 35235 ft | 507 kts | 115° |
| 2026-04-26 01:13 | 64.41128 | -6.51283 | 35237 ft | 508 kts | 115° |
| 2026-04-26 01:13 | 64.38347 | -6.36263 | 35238 ft | 508 kts | 116° |
| 2026-04-26 01:14 | 64.35574 | -6.21398 | 35247 ft | 507 kts | 116° |
| 2026-04-26 01:14 | 64.32768 | -6.06468 | 35249 ft | 507 kts | 116° |
| 2026-04-26 01:15 | 64.29948 | -5.91568 | 35250 ft | 508 kts | 116° |
| 2026-04-26 01:15 | 64.27108 | -5.76680 | 35251 ft | 508 kts | 116° |
| 2026-04-26 01:16 | 64.24229 | -5.61700 | 35251 ft | 508 kts | 116° |
| 2026-04-26 01:16 | 64.21374 | -5.46944 | 35252 ft | 509 kts | 116° |
| 2026-04-26 01:17 | 64.18477 | -5.32091 | 35251 ft | 510 kts | 117° |
| 2026-04-26 01:17 | 64.15557 | -5.17222 | 35252 ft | 512 kts | 117° |
| 2026-04-26 01:18 | 64.12615 | -5.02352 | 35252 ft | 513 kts | 117° |
| 2026-04-26 01:18 | 64.09649 | -4.87468 | 35252 ft | 515 kts | 117° |
| 2026-04-26 01:19 | 64.06661 | -4.72580 | 35257 ft | 516 kts | 117° |
| 2026-04-26 01:19 | 64.03651 | -4.57694 | 35258 ft | 517 kts | 117° |
| 2026-04-26 01:20 | 64.00620 | -4.42811 | 35258 ft | 518 kts | 117° |
| 2026-04-26 01:20 | 63.97573 | -4.27953 | 35257 ft | 517 kts | 117° |
| 2026-04-26 01:21 | 63.94513 | -4.13144 | 35258 ft | 518 kts | 117° |
| 2026-04-26 01:21 | 63.91430 | -3.98322 | 35257 ft | 519 kts | 118° |
| 2026-04-26 01:22 | 63.88329 | -3.83527 | 35257 ft | 519 kts | 118° |
| 2026-04-26 01:22 | 63.85215 | -3.68768 | 35256 ft | 518 kts | 118° |
| 2026-04-26 01:23 | 63.82620 | -3.56550 | 35256 ft | 517 kts | 118° |
| 2026-04-26 01:23 | 63.79466 | -3.41793 | 35255 ft | 517 kts | 118° |
| 2026-04-26 01:24 | 63.76320 | -3.27179 | 35254 ft | 517 kts | 118° |
| 2026-04-26 01:24 | 63.73182 | -3.12701 | 35253 ft | 517 kts | 118° |
| 2026-04-26 01:25 | 63.70001 | -2.98120 | 35253 ft | 518 kts | 118° |
| 2026-04-26 01:25 | 63.66799 | -2.83550 | 35253 ft | 519 kts | 118° |
| 2026-04-26 01:26 | 63.63576 | -2.68980 | 35233 ft | 521 kts | 118° |
| 2026-04-26 01:26 | 63.60328 | -2.54397 | 35232 ft | 522 kts | 118° |
| 2026-04-26 01:27 | 63.57058 | -2.39819 | 35233 ft | 523 kts | 118° |
| 2026-04-26 01:27 | 63.53767 | -2.25243 | 35234 ft | 524 kts | 119° |
| 2026-04-26 01:28 | 63.50457 | -2.10686 | 35234 ft | 525 kts | 119° |
| 2026-04-26 01:28 | 63.47130 | -1.96149 | 35232 ft | 525 kts | 119° |
| 2026-04-26 01:29 | 63.43780 | -1.81609 | 35235 ft | 526 kts | 119° |
| 2026-04-26 01:29 | 63.40421 | -1.67131 | 35235 ft | 525 kts | 119° |
| 2026-04-26 01:30 | 63.37049 | -1.52692 | 35237 ft | 524 kts | 120° |
| 2026-04-26 01:30 | 63.33670 | -1.38320 | 35237 ft | 523 kts | 120° |
| 2026-04-26 01:31 | 63.30285 | -1.24017 | 35254 ft | 521 kts | 120° |
| 2026-04-26 01:31 | 63.26897 | -1.09790 | 35267 ft | 521 kts | 120° |
| 2026-04-26 01:32 | 63.23500 | -0.95621 | 35269 ft | 519 kts | 120° |
| 2026-04-26 01:32 | 63.20091 | -0.81495 | 35271 ft | 519 kts | 120° |
| 2026-04-26 01:33 | 63.16680 | -0.67449 | 35273 ft | 518 kts | 121° |
| 2026-04-26 01:33 | 63.13318 | -0.53355 | 35277 ft | 518 kts | 120° |
| 2026-04-26 01:34 | 63.09887 | -0.39389 | 35291 ft | 517 kts | 121° |
| 2026-04-26 01:34 | 63.06415 | -0.25514 | 35293 ft | 516 kts | 121° |
| 2026-04-26 01:35 | 63.02957 | -0.11757 | 35296 ft | 516 kts | 121° |
| 2026-04-26 01:35 | 62.99144 | 0.01696 | 35301 ft | 514 kts | 131° |
| 2026-04-26 01:36 | 62.94398 | 0.13624 | 35304 ft | 523 kts | 136° |
| 2026-04-26 01:37 | 62.86789 | 0.30912 | 35309 ft | 524 kts | 137° |
| 2026-04-26 01:37 | 62.81785 | 0.42326 | 35313 ft | 524 kts | 137° |
| 2026-04-26 01:38 | 62.76736 | 0.53826 | 35317 ft | 524 kts | 137° |
| 2026-04-26 01:38 | 62.71776 | 0.65475 | 35321 ft | 524 kts | 136° |
| 2026-04-26 01:39 | 62.66788 | 0.77071 | 35326 ft | 525 kts | 136° |
| 2026-04-26 01:39 | 62.61762 | 0.88587 | 35329 ft | 525 kts | 136° |
| 2026-04-26 01:40 | 62.56714 | 1.00050 | 35333 ft | 526 kts | 137° |
| 2026-04-26 01:40 | 62.51640 | 1.11500 | 35337 ft | 526 kts | 137° |
| 2026-04-26 01:41 | 62.46560 | 1.22898 | 35337 ft | 527 kts | 137° |
| 2026-04-26 01:41 | 62.41456 | 1.34288 | 35329 ft | 528 kts | 137° |
| 2026-04-26 01:42 | 62.36345 | 1.45632 | 35332 ft | 527 kts | 137° |
| 2026-04-26 01:42 | 62.31233 | 1.56921 | 35335 ft | 527 kts | 137° |
| 2026-04-26 01:43 | 62.26103 | 1.68191 | 35337 ft | 527 kts | 137° |
| 2026-04-26 01:43 | 62.20968 | 1.79411 | 35339 ft | 527 kts | 137° |
| 2026-04-26 01:44 | 62.15826 | 1.90592 | 35350 ft | 527 kts | 137° |
| 2026-04-26 01:44 | 62.10670 | 2.01745 | 35352 ft | 527 kts | 137° |
| 2026-04-26 01:45 | 62.05510 | 2.12850 | 35352 ft | 527 kts | 137° |
| 2026-04-26 01:45 | 62.00336 | 2.23925 | 35346 ft | 527 kts | 137° |
| 2026-04-26 01:46 | 61.95161 | 2.34949 | 35345 ft | 527 kts | 137° |
| 2026-04-26 01:46 | 61.89971 | 2.45949 | 35344 ft | 527 kts | 137° |
| 2026-04-26 01:47 | 61.84774 | 2.56906 | 35345 ft | 526 kts | 137° |
| 2026-04-26 01:47 | 61.79577 | 2.67809 | 35345 ft | 526 kts | 137° |
| 2026-04-26 01:48 | 61.74364 | 2.78689 | 35342 ft | 527 kts | 137° |
| 2026-04-26 01:48 | 61.69138 | 2.89542 | 35342 ft | 528 kts | 138° |
| 2026-04-26 01:49 | 61.63893 | 3.00381 | 35340 ft | 528 kts | 138° |
| 2026-04-26 01:49 | 61.58640 | 3.11182 | 35339 ft | 529 kts | 138° |
| 2026-04-26 01:50 | 61.53364 | 3.21976 | 35335 ft | 530 kts | 138° |
| 2026-04-26 01:50 | 61.48076 | 3.32740 | 35335 ft | 531 kts | 138° |
| 2026-04-26 01:51 | 61.42770 | 3.43485 | 35333 ft | 531 kts | 138° |
| 2026-04-26 01:51 | 61.37491 | 3.54125 | 35330 ft | 531 kts | 138° |
| 2026-04-26 01:52 | 61.32162 | 3.64811 | 35327 ft | 532 kts | 138° |
| 2026-04-26 01:52 | 61.26820 | 3.75470 | 35322 ft | 532 kts | 138° |
| 2026-04-26 01:53 | 61.21478 | 3.86078 | 35321 ft | 531 kts | 138° |
| 2026-04-26 01:53 | 61.16127 | 3.96649 | 35320 ft | 531 kts | 138° |
| 2026-04-26 01:54 | 61.10760 | 4.07199 | 35318 ft | 535 kts | 138° |
| 2026-04-26 01:54 | 61.05357 | 4.17771 | 35318 ft | 534 kts | 138° |
| 2026-04-26 01:55 | 60.99966 | 4.28266 | 35317 ft | 533 kts | 138° |
| 2026-04-26 01:55 | 60.94567 | 4.38724 | 35316 ft | 533 kts | 138° |
| 2026-04-26 01:56 | 60.89167 | 4.49136 | 35315 ft | 532 kts | 138° |
| 2026-04-26 01:56 | 60.83758 | 4.59511 | 35314 ft | 532 kts | 138° |
| 2026-04-26 01:57 | 60.78341 | 4.69854 | 35312 ft | 532 kts | 138° |
| 2026-04-26 01:57 | 60.72914 | 4.80163 | 35309 ft | 533 kts | 138° |
| 2026-04-26 01:58 | 60.67478 | 4.90441 | 35306 ft | 533 kts | 138° |
| 2026-04-26 01:58 | 60.62023 | 5.00705 | 35303 ft | 534 kts | 138° |
| 2026-04-26 01:59 | 60.56551 | 5.10952 | 35293 ft | 535 kts | 138° |
| 2026-04-26 01:59 | 60.51069 | 5.21168 | 35291 ft | 535 kts | 138° |
| 2026-04-26 02:00 | 60.45567 | 5.31372 | 35289 ft | 536 kts | 138° |
| 2026-04-26 02:00 | 60.40056 | 5.41545 | 35289 ft | 536 kts | 138° |
| 2026-04-26 02:01 | 60.34526 | 5.51702 | 35289 ft | 537 kts | 138° |
| 2026-04-26 02:01 | 60.28989 | 5.61824 | 35289 ft | 537 kts | 138° |
| 2026-04-26 02:02 | 60.23439 | 5.71922 | 35288 ft | 538 kts | 138° |
| 2026-04-26 02:02 | 60.17870 | 5.82006 | 35287 ft | 538 kts | 138° |
| 2026-04-26 02:03 | 60.12297 | 5.92050 | 35284 ft | 538 kts | 138° |
| 2026-04-26 02:03 | 60.06717 | 6.02060 | 35282 ft | 538 kts | 138° |
| 2026-04-26 02:04 | 60.01128 | 6.12037 | 35282 ft | 538 kts | 138° |
| 2026-04-26 02:04 | 59.95531 | 6.21980 | 35281 ft | 538 kts | 139° |
| 2026-04-26 02:05 | 59.89927 | 6.31891 | 35280 ft | 538 kts | 139° |
| 2026-04-26 02:05 | 59.84319 | 6.41762 | 35278 ft | 538 kts | 139° |
| 2026-04-26 02:06 | 59.78737 | 6.51540 | 35277 ft | 539 kts | 139° |
| 2026-04-26 02:06 | 59.73101 | 6.61368 | 35276 ft | 540 kts | 139° |
| 2026-04-26 02:07 | 59.67457 | 6.71163 | 35277 ft | 539 kts | 139° |
| 2026-04-26 02:07 | 59.61800 | 6.80936 | 35276 ft | 540 kts | 139° |
| 2026-04-26 02:08 | 59.56130 | 6.90686 | 35276 ft | 541 kts | 139° |
| 2026-04-26 02:08 | 59.51370 | 6.98837 | 35276 ft | 541 kts | 139° |
| 2026-04-26 02:09 | 59.45673 | 7.08550 | 35276 ft | 542 kts | 139° |
| 2026-04-26 02:09 | 59.39962 | 7.18241 | 35272 ft | 543 kts | 139° |
| 2026-04-26 02:10 | 59.34239 | 7.27909 | 35271 ft | 543 kts | 139° |
| 2026-04-26 02:10 | 59.28497 | 7.37564 | 35261 ft | 543 kts | 139° |
| 2026-04-26 02:11 | 59.22789 | 7.47117 | 35260 ft | 544 kts | 139° |
| 2026-04-26 02:11 | 59.16990 | 7.56779 | 35256 ft | 544 kts | 139° |
| 2026-04-26 02:12 | 59.11262 | 7.66279 | 35255 ft | 544 kts | 139° |
| 2026-04-26 02:12 | 59.05490 | 7.75808 | 35254 ft | 544 kts | 139° |
| 2026-04-26 02:13 | 58.99720 | 7.85289 | 35252 ft | 543 kts | 139° |
| 2026-04-26 02:13 | 58.93948 | 7.94732 | 35252 ft | 543 kts | 139° |
| 2026-04-26 02:14 | 58.88168 | 8.04143 | 35249 ft | 544 kts | 139° |
| 2026-04-26 02:14 | 58.82350 | 8.13576 | 35252 ft | 547 kts | 139° |
| 2026-04-26 02:15 | 58.76516 | 8.22991 | 35251 ft | 546 kts | 139° |
| 2026-04-26 02:15 | 58.70681 | 8.32366 | 35248 ft | 546 kts | 139° |
| 2026-04-26 02:16 | 58.64844 | 8.41700 | 35248 ft | 545 kts | 139° |
| 2026-04-26 02:16 | 58.59010 | 8.50989 | 35249 ft | 545 kts | 139° |
| 2026-04-26 02:17 | 58.53160 | 8.60262 | 35250 ft | 546 kts | 139° |
| 2026-04-26 02:17 | 58.47293 | 8.69521 | 35250 ft | 546 kts | 139° |
| 2026-04-26 02:18 | 58.41421 | 8.78744 | 35250 ft | 547 kts | 139° |
| 2026-04-26 02:18 | 58.35531 | 8.87957 | 35249 ft | 548 kts | 139° |
| 2026-04-26 02:19 | 58.29628 | 8.97147 | 35249 ft | 549 kts | 139° |
| 2026-04-26 02:19 | 58.23709 | 9.06333 | 35247 ft | 550 kts | 139° |
| 2026-04-26 02:20 | 58.17805 | 9.15554 | 35245 ft | 551 kts | 139° |
| 2026-04-26 02:20 | 58.11838 | 9.24684 | 35243 ft | 551 kts | 139° |
| 2026-04-26 02:21 | 58.05859 | 9.33786 | 35241 ft | 552 kts | 140° |
| 2026-04-26 02:21 | 57.99861 | 9.42855 | 35239 ft | 553 kts | 141° |
| 2026-04-26 02:22 | 57.93525 | 9.50909 | 35239 ft | 553 kts | 147° |
| 2026-04-26 02:22 | 57.86948 | 9.58403 | 35236 ft | 554 kts | 148° |
| 2026-04-26 02:23 | 57.80368 | 9.65948 | 35235 ft | 554 kts | 148° |
| 2026-04-26 02:23 | 57.73797 | 9.73517 | 35234 ft | 554 kts | 148° |
| 2026-04-26 02:24 | 57.67246 | 9.81123 | 35233 ft | 554 kts | 147° |
| 2026-04-26 02:24 | 57.60715 | 9.88770 | 35233 ft | 554 kts | 147° |
| 2026-04-26 02:25 | 57.54160 | 9.96346 | 35232 ft | 554 kts | 147° |
| 2026-04-26 02:25 | 57.47599 | 10.03875 | 35232 ft | 555 kts | 148° |
| 2026-04-26 02:26 | 57.41007 | 10.11398 | 35231 ft | 556 kts | 148° |
| 2026-04-26 02:26 | 57.34418 | 10.18884 | 35226 ft | 555 kts | 148° |
| 2026-04-26 02:27 | 57.27825 | 10.26343 | 35227 ft | 555 kts | 148° |
| 2026-04-26 02:27 | 57.21232 | 10.33770 | 35226 ft | 555 kts | 148° |
| 2026-04-26 02:28 | 57.14677 | 10.41122 | 35550 ft | 554 kts | 148° |
| 2026-04-26 02:28 | 57.11341 | 10.44853 | 35779 ft | 554 kts | 148° |
| 2026-04-26 02:28 | 57.08094 | 10.48475 | 36076 ft | 552 kts | 148° |
| 2026-04-26 02:28 | 57.04811 | 10.52131 | 36299 ft | 552 kts | 148° |
| 2026-04-26 02:29 | 57.01524 | 10.55783 | 36550 ft | 551 kts | 148° |
| 2026-04-26 02:29 | 56.98252 | 10.59411 | 36813 ft | 550 kts | 148° |
| 2026-04-26 02:29 | 56.94983 | 10.63028 | 37063 ft | 549 kts | 148° |
| 2026-04-26 02:29 | 56.91712 | 10.66640 | 37193 ft | 550 kts | 148° |
| 2026-04-26 02:30 | 56.88437 | 10.70247 | 37214 ft | 550 kts | 148° |
| 2026-04-26 02:30 | 56.81889 | 10.77440 | 37220 ft | 548 kts | 148° |
| 2026-04-26 02:31 | 56.75346 | 10.84599 | 37220 ft | 549 kts | 148° |
| 2026-04-26 02:31 | 56.68783 | 10.91749 | 37221 ft | 550 kts | 148° |
| 2026-04-26 02:32 | 56.62214 | 10.98877 | 37222 ft | 550 kts | 148° |
| 2026-04-26 02:32 | 56.55639 | 11.05981 | 37222 ft | 551 kts | 148° |
| 2026-04-26 02:33 | 56.49047 | 11.13075 | 37222 ft | 552 kts | 148° |
| 2026-04-26 02:33 | 56.42439 | 11.20158 | 37222 ft | 552 kts | 148° |
| 2026-04-26 02:34 | 56.35820 | 11.27223 | 37221 ft | 553 kts | 148° |
| 2026-04-26 02:34 | 56.29191 | 11.34270 | 37216 ft | 554 kts | 148° |
| 2026-04-26 02:35 | 56.22552 | 11.41300 | 37211 ft | 554 kts | 148° |
| 2026-04-26 02:35 | 56.15939 | 11.48272 | 37207 ft | 555 kts | 148° |
| 2026-04-26 02:36 | 56.09272 | 11.55274 | 37202 ft | 555 kts | 148° |
| 2026-04-26 02:36 | 56.02591 | 11.62261 | 37197 ft | 556 kts | 148° |
| 2026-04-26 02:37 | 55.95906 | 11.69226 | 37193 ft | 556 kts | 149° |
| 2026-04-26 02:37 | 55.89218 | 11.76165 | 37188 ft | 556 kts | 149° |
| 2026-04-26 02:38 | 55.82524 | 11.83083 | 37183 ft | 557 kts | 149° |
| 2026-04-26 02:38 | 55.75815 | 11.89987 | 37179 ft | 557 kts | 149° |
| 2026-04-26 02:39 | 55.69109 | 11.96862 | 37175 ft | 556 kts | 149° |
| 2026-04-26 02:39 | 55.62406 | 12.03706 | 37172 ft | 557 kts | 149° |
| 2026-04-26 02:40 | 55.55683 | 12.10543 | 37171 ft | 558 kts | 149° |
| 2026-04-26 02:40 | 55.48994 | 12.17317 | 37171 ft | 558 kts | 149° |
| 2026-04-26 02:41 | 55.42267 | 12.24105 | 37171 ft | 557 kts | 149° |
| 2026-04-26 02:41 | 55.35544 | 12.30861 | 37171 ft | 557 kts | 149° |
| 2026-04-26 02:42 | 55.28815 | 12.37598 | 37170 ft | 557 kts | 149° |
| 2026-04-26 02:42 | 55.22079 | 12.44314 | 37170 ft | 557 kts | 149° |
| 2026-04-26 02:43 | 55.11997 | 12.54377 | 37169 ft | 556 kts | 149° |
| 2026-04-26 02:43 | 55.05263 | 12.61026 | 37169 ft | 556 kts | 150° |
| 2026-04-26 02:44 | 54.98511 | 12.67640 | 37166 ft | 556 kts | 150° |
| 2026-04-26 02:44 | 54.91766 | 12.74227 | 37155 ft | 556 kts | 150° |
| 2026-04-26 02:45 | 54.85537 | 12.82119 | 37149 ft | 553 kts | 134° |
| 2026-04-26 02:45 | 54.80385 | 12.91963 | 37153 ft | 550 kts | 128° |
| 2026-04-26 02:46 | 54.75239 | 13.01762 | 37151 ft | 550 kts | 129° |
| 2026-04-26 02:46 | 54.70000 | 13.11419 | 37151 ft | 551 kts | 129° |
| 2026-04-26 02:47 | 54.64790 | 13.21008 | 37149 ft | 551 kts | 129° |
| 2026-04-26 02:47 | 54.59160 | 13.29969 | 37142 ft | 554 kts | 143° |
| 2026-04-26 02:48 | 54.52515 | 13.36756 | 37145 ft | 557 kts | 152° |
| 2026-04-26 02:48 | 54.45529 | 13.42554 | 37123 ft | 557 kts | 154° |
| 2026-04-26 02:49 | 54.38584 | 13.48486 | 37130 ft | 557 kts | 154° |
| 2026-04-26 02:49 | 54.31651 | 13.54439 | 37125 ft | 557 kts | 154° |
| 2026-04-26 02:50 | 54.24724 | 13.60397 | 37123 ft | 557 kts | 154° |
| 2026-04-26 02:50 | 54.17780 | 13.66302 | 37121 ft | 558 kts | 154° |
| 2026-04-26 02:51 | 54.10921 | 13.72467 | 37122 ft | 557 kts | 146° |
| 2026-04-26 02:51 | 54.04941 | 13.80829 | 37124 ft | 556 kts | 134° |
| 2026-04-26 02:52 | 53.99438 | 13.90051 | 37114 ft | 555 kts | 134° |
| 2026-04-26 02:52 | 53.93829 | 13.99069 | 37112 ft | 555 kts | 134° |
| 2026-04-26 02:53 | 53.88226 | 14.08068 | 37111 ft | 555 kts | 134° |
| 2026-04-26 02:53 | 53.82593 | 14.17007 | 37113 ft | 555 kts | 134° |
| 2026-04-26 02:54 | 53.76951 | 14.25934 | 37111 ft | 555 kts | 134° |
| 2026-04-26 02:54 | 53.71137 | 14.34537 | 37106 ft | 556 kts | 139° |
| 2026-04-26 02:55 | 53.66148 | 14.41397 | 37103 ft | 556 kts | 139° |
| 2026-04-26 02:55 | 53.59153 | 14.51043 | 37094 ft | 556 kts | 139° |
| 2026-04-26 02:56 | 53.53215 | 14.59247 | 37087 ft | 556 kts | 139° |
| 2026-04-26 02:56 | 53.47249 | 14.67531 | 37084 ft | 556 kts | 138° |
| 2026-04-26 02:57 | 53.42283 | 14.74521 | 37084 ft | 556 kts | 139° |
| 2026-04-26 02:57 | 53.36324 | 14.82799 | 37081 ft | 557 kts | 139° |
| 2026-04-26 02:58 | 53.30342 | 14.91044 | 37082 ft | 557 kts | 139° |
| 2026-04-26 02:58 | 53.24357 | 14.99255 | 37080 ft | 557 kts | 139° |
| 2026-04-26 02:59 | 53.18367 | 15.07438 | 37076 ft | 557 kts | 139° |
| 2026-04-26 02:59 | 53.12367 | 15.15609 | 37074 ft | 557 kts | 140° |
| 2026-04-26 03:00 | 53.06391 | 15.23707 | 37057 ft | 558 kts | 140° |
| 2026-04-26 03:00 | 53.00368 | 15.31842 | 37048 ft | 558 kts | 140° |
| 2026-04-26 03:01 | 52.94338 | 15.39958 | 37040 ft | 558 kts | 140° |
| 2026-04-26 03:01 | 52.88298 | 15.48058 | 37025 ft | 559 kts | 140° |
| 2026-04-26 03:02 | 52.82252 | 15.56133 | 37010 ft | 559 kts | 140° |
| 2026-04-26 03:02 | 52.76198 | 15.64188 | 36995 ft | 559 kts | 140° |
| 2026-04-26 03:03 | 52.70136 | 15.72225 | 36981 ft | 559 kts | 141° |
| 2026-04-26 03:03 | 52.64073 | 15.80237 | 36970 ft | 558 kts | 141° |
| 2026-04-26 03:04 | 52.58000 | 15.88223 | 36973 ft | 559 kts | 141° |
| 2026-04-26 03:04 | 52.51921 | 15.96197 | 36969 ft | 559 kts | 141° |
| 2026-04-26 03:05 | 52.45843 | 16.04144 | 36966 ft | 559 kts | 141° |
| 2026-04-26 03:05 | 52.39740 | 16.12089 | 36968 ft | 560 kts | 141° |
| 2026-04-26 03:06 | 52.33643 | 16.19998 | 36969 ft | 559 kts | 142° |
| 2026-04-26 03:06 | 52.27544 | 16.27877 | 36972 ft | 559 kts | 142° |
| 2026-04-26 03:07 | 52.21442 | 16.35737 | 36987 ft | 559 kts | 142° |
| 2026-04-26 03:07 | 52.15333 | 16.43577 | 36992 ft | 559 kts | 142° |
| 2026-04-26 03:08 | 52.09251 | 16.51353 | 36998 ft | 559 kts | 142° |
| 2026-04-26 03:08 | 52.03127 | 16.59156 | 37003 ft | 560 kts | 142° |
| 2026-04-26 03:09 | 51.96996 | 16.66938 | 37005 ft | 558 kts | 142° |
| 2026-04-26 03:09 | 51.90895 | 16.74659 | 37010 ft | 555 kts | 143° |
| 2026-04-26 03:10 | 51.84800 | 16.82339 | 37017 ft | 556 kts | 143° |
| 2026-04-26 03:10 | 51.78702 | 16.89998 | 37057 ft | 555 kts | 143° |
| 2026-04-26 03:11 | 51.72598 | 16.97637 | 37057 ft | 555 kts | 143° |
| 2026-04-26 03:11 | 51.66503 | 17.05243 | 37062 ft | 555 kts | 143° |
| 2026-04-26 03:12 | 51.60396 | 17.12837 | 37064 ft | 554 kts | 143° |
| 2026-04-26 03:12 | 51.54288 | 17.20404 | 37064 ft | 554 kts | 143° |
| 2026-04-26 03:13 | 51.48186 | 17.27934 | 37070 ft | 554 kts | 144° |
| 2026-04-26 03:13 | 51.42069 | 17.35460 | 37070 ft | 554 kts | 144° |
| 2026-04-26 03:14 | 51.35956 | 17.42954 | 37068 ft | 553 kts | 144° |
| 2026-04-26 03:14 | 51.29885 | 17.50368 | 37071 ft | 552 kts | 144° |
| 2026-04-26 03:15 | 51.23775 | 17.57809 | 37070 ft | 552 kts | 144° |
| 2026-04-26 03:15 | 51.17661 | 17.65224 | 37061 ft | 551 kts | 144° |
| 2026-04-26 03:16 | 51.11553 | 17.72609 | 37054 ft | 551 kts | 144° |
| 2026-04-26 03:16 | 51.05450 | 17.79966 | 37038 ft | 550 kts | 144° |
| 2026-04-26 03:17 | 50.99353 | 17.87285 | 37031 ft | 549 kts | 144° |
| 2026-04-26 03:17 | 50.93261 | 17.94578 | 37021 ft | 548 kts | 144° |
| 2026-04-26 03:18 | 50.87178 | 18.01838 | 37012 ft | 545 kts | 145° |
| 2026-04-26 03:18 | 50.81138 | 18.09016 | 37007 ft | 543 kts | 145° |
| 2026-04-26 03:19 | 50.75090 | 18.16183 | 36996 ft | 543 kts | 145° |
| 2026-04-26 03:19 | 50.69045 | 18.23325 | 36991 ft | 542 kts | 146° |
| 2026-04-26 03:20 | 50.63011 | 18.30427 | 36987 ft | 541 kts | 146° |
| 2026-04-26 03:20 | 50.57026 | 18.37449 | 36982 ft | 540 kts | 146° |
| 2026-04-26 03:21 | 50.50962 | 18.44544 | 36982 ft | 539 kts | 146° |
| 2026-04-26 03:21 | 50.44976 | 18.51520 | 36976 ft | 539 kts | 146° |
| 2026-04-26 03:22 | 50.38949 | 18.58523 | 36974 ft | 540 kts | 146° |
| 2026-04-26 03:22 | 50.32906 | 18.65523 | 36965 ft | 540 kts | 146° |
| 2026-04-26 03:23 | 50.26867 | 18.72493 | 36962 ft | 539 kts | 146° |
| 2026-04-26 03:23 | 50.20834 | 18.79439 | 36963 ft | 538 kts | 146° |
| 2026-04-26 03:24 | 50.14802 | 18.86360 | 36962 ft | 538 kts | 146° |
| 2026-04-26 03:24 | 50.08770 | 18.93253 | 36954 ft | 537 kts | 146° |
| 2026-04-26 03:25 | 50.02747 | 19.00118 | 36958 ft | 536 kts | 147° |
| 2026-04-26 03:25 | 49.96738 | 19.06946 | 36962 ft | 533 kts | 147° |
| 2026-04-26 03:26 | 49.90766 | 19.13711 | 36932 ft | 529 kts | 147° |
| 2026-04-26 03:26 | 49.84841 | 19.20444 | 36927 ft | 528 kts | 147° |
| 2026-04-26 03:27 | 49.78903 | 19.27147 | 36924 ft | 529 kts | 147° |
| 2026-04-26 03:27 | 49.72943 | 19.33813 | 36921 ft | 529 kts | 147° |
| 2026-04-26 03:28 | 49.66977 | 19.40465 | 36919 ft | 529 kts | 148° |
| 2026-04-26 03:28 | 49.60778 | 19.46422 | 36920 ft | 523 kts | 161° |
| 2026-04-26 03:29 | 49.54011 | 19.50098 | 36916 ft | 515 kts | 169° |
| 2026-04-26 03:29 | 49.47117 | 19.52933 | 36912 ft | 511 kts | 171° |
| 2026-04-26 03:30 | 49.40240 | 19.55707 | 36908 ft | 510 kts | 171° |
| 2026-04-26 03:30 | 49.33379 | 19.58529 | 36903 ft | 511 kts | 171° |
| 2026-04-26 03:31 | 49.26514 | 19.61374 | 36896 ft | 511 kts | 170° |
| 2026-04-26 03:31 | 49.19657 | 19.64243 | 36888 ft | 510 kts | 170° |
| 2026-04-26 03:32 | 49.12801 | 19.67087 | 36882 ft | 510 kts | 170° |
| 2026-04-26 03:32 | 49.05998 | 19.69896 | 36877 ft | 509 kts | 170° |
| 2026-04-26 03:33 | 48.99163 | 19.72708 | 36869 ft | 509 kts | 170° |
| 2026-04-26 03:33 | 48.92330 | 19.75511 | 36862 ft | 510 kts | 170° |
| 2026-04-26 03:34 | 48.85419 | 19.78336 | 36868 ft | 519 kts | 169° |
| 2026-04-26 03:34 | 48.78427 | 19.81189 | 36867 ft | 520 kts | 169° |
| 2026-04-26 03:35 | 48.71461 | 19.84022 | 36870 ft | 517 kts | 169° |
| 2026-04-26 03:35 | 48.64511 | 19.86841 | 36879 ft | 516 kts | 169° |
| 2026-04-26 03:36 | 48.57580 | 19.89644 | 36885 ft | 515 kts | 169° |
| 2026-04-26 03:36 | 48.50668 | 19.92431 | 36891 ft | 514 kts | 168° |
| 2026-04-26 03:37 | 48.43771 | 19.95224 | 36897 ft | 513 kts | 168° |
| 2026-04-26 03:37 | 48.36886 | 19.97984 | 36902 ft | 511 kts | 168° |
| 2026-04-26 03:38 | 48.30017 | 20.00723 | 36908 ft | 511 kts | 168° |
| 2026-04-26 03:38 | 48.23149 | 20.03455 | 36913 ft | 511 kts | 168° |
| 2026-04-26 03:39 | 48.16223 | 20.05600 | 36920 ft | 506 kts | 178° |
| 2026-04-26 03:39 | 48.09221 | 20.06080 | 36923 ft | 501 kts | 184° |
| 2026-04-26 03:40 | 48.02254 | 20.06086 | 36927 ft | 500 kts | 184° |
| 2026-04-26 03:40 | 47.95305 | 20.06154 | 36932 ft | 500 kts | 184° |
| 2026-04-26 03:41 | 47.88346 | 20.06263 | 36935 ft | 500 kts | 184° |
| 2026-04-26 03:41 | 47.81387 | 20.06387 | 36938 ft | 500 kts | 184° |
| 2026-04-26 03:42 | 47.74468 | 20.06516 | 36940 ft | 500 kts | 184° |
| 2026-04-26 03:42 | 47.67514 | 20.06646 | 36937 ft | 500 kts | 184° |
| 2026-04-26 03:43 | 47.60563 | 20.06776 | 36938 ft | 499 kts | 184° |
| 2026-04-26 03:43 | 47.53619 | 20.06906 | 36939 ft | 499 kts | 184° |
| 2026-04-26 03:44 | 47.46679 | 20.07035 | 36942 ft | 498 kts | 184° |
| 2026-04-26 03:44 | 47.39749 | 20.07164 | 36944 ft | 497 kts | 184° |
| 2026-04-26 03:45 | 47.32838 | 20.07292 | 36943 ft | 497 kts | 184° |
| 2026-04-26 03:45 | 47.25931 | 20.07419 | 36941 ft | 496 kts | 184° |
| 2026-04-26 03:46 | 47.20201 | 20.07525 | 36940 ft | 495 kts | 184° |
| 2026-04-26 03:47 | 47.09881 | 20.07714 | 36939 ft | 493 kts | 184° |
| 2026-04-26 03:47 | 47.01914 | 20.07860 | 36942 ft | 492 kts | 184° |
| 2026-04-26 03:48 | 46.96184 | 20.07965 | 36946 ft | 491 kts | 184° |
| 2026-04-26 03:48 | 46.89358 | 20.08089 | 36950 ft | 490 kts | 184° |
| 2026-04-26 03:49 | 46.82590 | 20.08212 | 36953 ft | 489 kts | 184° |
| 2026-04-26 03:49 | 46.75756 | 20.08336 | 36955 ft | 488 kts | 184° |
| 2026-04-26 03:50 | 46.68964 | 20.08459 | 36956 ft | 487 kts | 183° |
| 2026-04-26 03:50 | 46.62195 | 20.08581 | 36956 ft | 486 kts | 183° |
| 2026-04-26 03:51 | 46.55483 | 20.08702 | 36957 ft | 485 kts | 183° |
| 2026-04-26 03:51 | 46.48740 | 20.08823 | 36957 ft | 484 kts | 183° |
| 2026-04-26 03:52 | 46.42004 | 20.08945 | 36958 ft | 484 kts | 183° |
| 2026-04-26 03:52 | 46.35271 | 20.09065 | 36959 ft | 483 kts | 183° |
| 2026-04-26 03:53 | 46.28548 | 20.09185 | 36960 ft | 483 kts | 183° |
| 2026-04-26 03:53 | 46.21825 | 20.09304 | 36961 ft | 483 kts | 183° |
| 2026-04-26 03:53 | 46.18471 | 20.09624 | 36954 ft | 485 kts | 172° |
| 2026-04-26 03:54 | 46.15223 | 20.11004 | 36966 ft | 489 kts | 162° |
| 2026-04-26 03:54 | 46.08978 | 20.15028 | 36964 ft | 494 kts | 155° |
| 2026-04-26 03:55 | 46.02920 | 20.19757 | 36964 ft | 496 kts | 153° |
| 2026-04-26 03:55 | 45.96866 | 20.24527 | 36965 ft | 495 kts | 154° |
| 2026-04-26 03:56 | 45.90803 | 20.29236 | 36970 ft | 495 kts | 154° |
| 2026-04-26 03:56 | 45.84782 | 20.33898 | 36970 ft | 495 kts | 154° |
| 2026-04-26 03:57 | 45.78727 | 20.38618 | 36970 ft | 495 kts | 154° |
| 2026-04-26 03:57 | 45.72664 | 20.43301 | 36977 ft | 495 kts | 154° |
| 2026-04-26 03:58 | 45.66593 | 20.47967 | 36978 ft | 495 kts | 154° |
| 2026-04-26 03:58 | 45.60514 | 20.52625 | 36978 ft | 496 kts | 154° |
| 2026-04-26 03:59 | 45.54432 | 20.57271 | 36980 ft | 496 kts | 155° |
| 2026-04-26 03:59 | 45.48345 | 20.61909 | 36981 ft | 496 kts | 155° |
| 2026-04-26 04:00 | 45.42249 | 20.66544 | 36981 ft | 497 kts | 155° |
| 2026-04-26 04:00 | 45.36147 | 20.71171 | 36983 ft | 497 kts | 155° |
| 2026-04-26 04:01 | 45.30044 | 20.75788 | 36985 ft | 497 kts | 155° |
| 2026-04-26 04:01 | 45.23939 | 20.80394 | 36987 ft | 497 kts | 155° |
| 2026-04-26 04:02 | 45.17867 | 20.84965 | 36988 ft | 497 kts | 155° |
| 2026-04-26 04:02 | 45.11759 | 20.89551 | 36991 ft | 497 kts | 155° |
| 2026-04-26 04:03 | 45.05649 | 20.94129 | 36995 ft | 497 kts | 155° |
| 2026-04-26 04:03 | 44.99536 | 20.98727 | 36996 ft | 498 kts | 155° |
| 2026-04-26 04:04 | 44.93415 | 21.03293 | 37001 ft | 497 kts | 156° |
| 2026-04-26 04:04 | 44.87287 | 21.07837 | 37005 ft | 497 kts | 156° |
| 2026-04-26 04:05 | 44.81160 | 21.12372 | 37006 ft | 497 kts | 156° |
| 2026-04-26 04:05 | 44.75109 | 21.17081 | 37008 ft | 498 kts | 149° |
| 2026-04-26 04:06 | 44.69600 | 21.23073 | 37012 ft | 503 kts | 142° |
| 2026-04-26 04:06 | 44.64313 | 21.29535 | 37013 ft | 504 kts | 142° |
| 2026-04-26 04:07 | 44.58994 | 21.35953 | 37010 ft | 504 kts | 142° |
| 2026-04-26 04:07 | 44.53684 | 21.42285 | 37012 ft | 504 kts | 142° |
| 2026-04-26 04:08 | 44.48326 | 21.48646 | 37016 ft | 505 kts | 142° |
| 2026-04-26 04:08 | 44.42992 | 21.55051 | 37020 ft | 505 kts | 142° |
| 2026-04-26 04:09 | 44.37640 | 21.61414 | 37022 ft | 505 kts | 142° |
| 2026-04-26 04:09 | 44.32278 | 21.67755 | 37023 ft | 505 kts | 142° |
| 2026-04-26 04:10 | 44.26908 | 21.74085 | 37021 ft | 505 kts | 142° |
| 2026-04-26 04:10 | 44.21531 | 21.80404 | 37022 ft | 505 kts | 142° |
| 2026-04-26 04:11 | 44.16151 | 21.86711 | 37024 ft | 505 kts | 142° |
| 2026-04-26 04:11 | 44.10768 | 21.93007 | 37019 ft | 505 kts | 142° |
| 2026-04-26 04:12 | 44.05383 | 21.99288 | 37022 ft | 505 kts | 142° |
| 2026-04-26 04:12 | 43.99992 | 22.05563 | 37024 ft | 505 kts | 143° |
| 2026-04-26 04:13 | 43.94602 | 22.11821 | 37026 ft | 505 kts | 143° |
| 2026-04-26 04:13 | 43.89221 | 22.18101 | 37028 ft | 505 kts | 142° |
| 2026-04-26 04:14 | 43.83822 | 22.24335 | 37030 ft | 505 kts | 143° |
| 2026-04-26 04:14 | 43.78422 | 22.30539 | 37031 ft | 505 kts | 143° |
| 2026-04-26 04:15 | 43.73017 | 22.36737 | 37033 ft | 504 kts | 143° |
| 2026-04-26 04:15 | 43.68006 | 22.43500 | 37035 ft | 506 kts | 130° |
| 2026-04-26 04:16 | 43.63958 | 22.51472 | 37034 ft | 508 kts | 124° |
| 2026-04-26 04:16 | 43.60209 | 22.59735 | 37031 ft | 508 kts | 123° |
| 2026-04-26 04:17 | 43.56435 | 22.67955 | 37030 ft | 507 kts | 123° |
| 2026-04-26 04:17 | 43.52632 | 22.76137 | 37029 ft | 507 kts | 123° |
| 2026-04-26 04:18 | 43.48834 | 22.84309 | 37027 ft | 506 kts | 122° |
| 2026-04-26 04:18 | 43.45072 | 22.92497 | 37026 ft | 506 kts | 123° |
| 2026-04-26 04:19 | 43.41301 | 23.00600 | 37026 ft | 506 kts | 123° |
| 2026-04-26 04:19 | 43.37492 | 23.08736 | 37026 ft | 506 kts | 123° |
| 2026-04-26 04:20 | 43.33676 | 23.16853 | 37026 ft | 505 kts | 123° |
| 2026-04-26 04:20 | 43.29858 | 23.24948 | 37033 ft | 505 kts | 123° |
| 2026-04-26 04:21 | 43.26033 | 23.33034 | 37034 ft | 505 kts | 123° |
| 2026-04-26 04:21 | 43.22203 | 23.41110 | 37033 ft | 505 kts | 123° |
| 2026-04-26 04:22 | 43.18366 | 23.49178 | 37034 ft | 505 kts | 123° |
| 2026-04-26 04:22 | 43.14524 | 23.57233 | 37035 ft | 505 kts | 123° |
| 2026-04-26 04:23 | 43.10682 | 23.65266 | 37036 ft | 504 kts | 123° |
| 2026-04-26 04:23 | 43.06836 | 23.73285 | 37037 ft | 504 kts | 123° |
| 2026-04-26 04:24 | 43.02984 | 23.81297 | 37037 ft | 504 kts | 123° |
| 2026-04-26 04:24 | 42.99130 | 23.89291 | 37036 ft | 503 kts | 123° |
| 2026-04-26 04:25 | 42.95278 | 23.97258 | 37030 ft | 503 kts | 123° |
| 2026-04-26 04:25 | 42.91445 | 24.05165 | 37029 ft | 502 kts | 123° |
| 2026-04-26 04:26 | 42.87592 | 24.13094 | 37028 ft | 501 kts | 123° |
| 2026-04-26 04:26 | 42.83732 | 24.21014 | 37027 ft | 501 kts | 123° |
| 2026-04-26 04:27 | 42.79871 | 24.28917 | 37024 ft | 500 kts | 123° |
| 2026-04-26 04:27 | 42.76010 | 24.36797 | 37023 ft | 500 kts | 123° |
| 2026-04-26 04:28 | 42.72145 | 24.44664 | 37022 ft | 500 kts | 123° |
| 2026-04-26 04:28 | 42.68281 | 24.52512 | 37021 ft | 499 kts | 123° |
| 2026-04-26 04:29 | 42.64413 | 24.60344 | 37023 ft | 499 kts | 123° |
| 2026-04-26 04:29 | 42.60535 | 24.68177 | 37023 ft | 499 kts | 123° |
| 2026-04-26 04:30 | 42.56658 | 24.75988 | 37023 ft | 499 kts | 123° |
| 2026-04-26 04:30 | 42.52800 | 24.83740 | 37022 ft | 499 kts | 123° |
| 2026-04-26 04:31 | 42.48909 | 24.91538 | 37022 ft | 499 kts | 123° |
| 2026-04-26 04:31 | 42.45021 | 24.99310 | 37022 ft | 498 kts | 123° |
| 2026-04-26 04:32 | 42.41132 | 25.07065 | 37022 ft | 498 kts | 123° |
| 2026-04-26 04:32 | 42.37237 | 25.14808 | 37020 ft | 498 kts | 123° |
| 2026-04-26 04:33 | 42.33375 | 25.22554 | 37020 ft | 496 kts | 123° |
| 2026-04-26 04:33 | 42.29479 | 25.30255 | 37020 ft | 496 kts | 123° |
| 2026-04-26 04:34 | 42.25577 | 25.37925 | 37019 ft | 495 kts | 123° |
| 2026-04-26 04:34 | 42.21675 | 25.45579 | 37019 ft | 495 kts | 123° |
| 2026-04-26 04:35 | 42.18025 | 25.53412 | 37020 ft | 492 kts | 115° |
| 2026-04-26 04:35 | 42.15316 | 25.61863 | 37017 ft | 490 kts | 109° |
| 2026-04-26 04:36 | 42.12887 | 25.70434 | 37012 ft | 489 kts | 109° |
| 2026-04-26 04:36 | 42.10827 | 25.77511 | 37008 ft | 488 kts | 109° |
| 2026-04-26 04:37 | 42.08320 | 25.86000 | 37008 ft | 488 kts | 109° |
| 2026-04-26 04:37 | 42.05801 | 25.94483 | 36994 ft | 488 kts | 109° |
| 2026-04-26 04:38 | 42.03328 | 26.02980 | 36993 ft | 488 kts | 109° |
| 2026-04-26 04:38 | 42.00825 | 26.11456 | 36993 ft | 488 kts | 109° |
| 2026-04-26 04:39 | 41.98323 | 26.19934 | 36993 ft | 488 kts | 109° |
| 2026-04-26 04:39 | 41.95805 | 26.28399 | 36993 ft | 487 kts | 109° |
| 2026-04-26 04:40 | 41.93275 | 26.36775 | 36989 ft | 487 kts | 110° |
| 2026-04-26 04:40 | 41.90721 | 26.45198 | 36989 ft | 487 kts | 110° |
| 2026-04-26 04:41 | 41.88005 | 26.53506 | 36974 ft | 487 kts | 120° |
| 2026-04-26 04:41 | 41.85864 | 26.57034 | 36994 ft | 489 kts | 133° |
| 2026-04-26 04:41 | 41.83379 | 26.60152 | 36990 ft | 491 kts | 137° |
| 2026-04-26 04:42 | 41.77957 | 26.65744 | 36990 ft | 492 kts | 144° |
| 2026-04-26 04:42 | 41.72300 | 26.70924 | 36990 ft | 493 kts | 144° |
| 2026-04-26 04:43 | 41.66701 | 26.76209 | 36990 ft | 492 kts | 144° |
| 2026-04-26 04:43 | 41.61107 | 26.81461 | 36990 ft | 491 kts | 144° |
| 2026-04-26 04:44 | 41.55513 | 26.86697 | 36991 ft | 491 kts | 144° |
| 2026-04-26 04:44 | 41.49924 | 26.91920 | 36991 ft | 490 kts | 144° |
| 2026-04-26 04:45 | 41.44343 | 26.97145 | 36991 ft | 490 kts | 143° |
| 2026-04-26 04:45 | 41.38761 | 27.02356 | 36992 ft | 490 kts | 144° |
| 2026-04-26 04:46 | 41.33207 | 27.07506 | 36992 ft | 490 kts | 144° |
| 2026-04-26 04:46 | 41.27619 | 27.12675 | 36992 ft | 489 kts | 144° |
| 2026-04-26 04:47 | 41.22000 | 27.17866 | 36994 ft | 489 kts | 144° |
| 2026-04-26 04:47 | 41.16430 | 27.23037 | 36994 ft | 488 kts | 143° |
| 2026-04-26 04:48 | 41.08090 | 27.30707 | 37001 ft | 488 kts | 144° |
| 2026-04-26 04:48 | 41.02507 | 27.35822 | 37000 ft | 487 kts | 144° |
| 2026-04-26 04:49 | 40.96934 | 27.40919 | 37000 ft | 487 kts | 144° |
| 2026-04-26 04:49 | 40.91206 | 27.45699 | 37001 ft | 487 kts | 148° |
| 2026-04-26 04:50 | 40.85305 | 27.50089 | 37002 ft | 486 kts | 149° |
| 2026-04-26 04:50 | 40.79417 | 27.54492 | 37002 ft | 486 kts | 149° |
| 2026-04-26 04:51 | 40.73543 | 27.58906 | 37000 ft | 486 kts | 149° |
| 2026-04-26 04:51 | 40.67670 | 27.63319 | 37002 ft | 486 kts | 148° |
| 2026-04-26 04:52 | 40.61818 | 27.67747 | 37003 ft | 484 kts | 148° |
| 2026-04-26 04:52 | 40.55978 | 27.72160 | 37005 ft | 484 kts | 148° |
| 2026-04-26 04:53 | 40.50136 | 27.76549 | 37008 ft | 483 kts | 148° |
| 2026-04-26 04:53 | 40.44296 | 27.80923 | 37010 ft | 483 kts | 148° |
| 2026-04-26 04:54 | 40.38458 | 27.85286 | 37013 ft | 483 kts | 148° |
| 2026-04-26 04:54 | 40.32626 | 27.89636 | 37017 ft | 482 kts | 148° |
| 2026-04-26 04:55 | 40.26790 | 27.93979 | 37026 ft | 482 kts | 148° |
| 2026-04-26 04:55 | 40.20964 | 27.98315 | 37028 ft | 482 kts | 148° |
| 2026-04-26 04:56 | 40.15140 | 28.02653 | 37031 ft | 482 kts | 148° |
| 2026-04-26 04:56 | 40.09307 | 28.06961 | 37034 ft | 481 kts | 148° |
| 2026-04-26 04:57 | 40.03472 | 28.11259 | 37037 ft | 482 kts | 148° |
| 2026-04-26 04:57 | 39.97638 | 28.15551 | 37040 ft | 482 kts | 148° |
| 2026-04-26 04:58 | 39.91799 | 28.19839 | 37042 ft | 482 kts | 149° |
| 2026-04-26 04:58 | 39.85956 | 28.24088 | 37043 ft | 481 kts | 149° |
| 2026-04-26 04:59 | 39.80110 | 28.28332 | 37044 ft | 481 kts | 149° |
| 2026-04-26 04:59 | 39.74267 | 28.32567 | 37044 ft | 481 kts | 149° |
| 2026-04-26 05:00 | 39.68469 | 28.36763 | 37043 ft | 480 kts | 149° |
| 2026-04-26 05:00 | 39.62635 | 28.40988 | 37042 ft | 480 kts | 149° |
| 2026-04-26 05:01 | 39.56818 | 28.45224 | 37037 ft | 479 kts | 149° |
| 2026-04-26 05:01 | 39.50993 | 28.49435 | 37035 ft | 479 kts | 149° |
| 2026-04-26 05:02 | 39.45176 | 28.53626 | 37032 ft | 479 kts | 149° |
| 2026-04-26 05:02 | 39.39352 | 28.57813 | 37027 ft | 478 kts | 149° |
| 2026-04-26 05:03 | 39.33544 | 28.62001 | 37022 ft | 478 kts | 149° |
| 2026-04-26 05:03 | 39.27735 | 28.66166 | 37017 ft | 478 kts | 150° |
| 2026-04-26 05:04 | 39.21921 | 28.70312 | 37011 ft | 477 kts | 150° |
| 2026-04-26 05:04 | 39.16114 | 28.74445 | 37006 ft | 477 kts | 150° |
| 2026-04-26 05:05 | 39.10309 | 28.78570 | 37000 ft | 476 kts | 150° |
| 2026-04-26 05:05 | 39.04507 | 28.82697 | 36995 ft | 476 kts | 150° |
| 2026-04-26 05:06 | 38.98706 | 28.86816 | 36989 ft | 476 kts | 150° |
| 2026-04-26 05:06 | 38.92911 | 28.90924 | 36984 ft | 475 kts | 150° |
| 2026-04-26 05:07 | 38.87131 | 28.95057 | 36978 ft | 475 kts | 150° |
| 2026-04-26 05:07 | 38.81346 | 28.99157 | 36975 ft | 475 kts | 150° |
| 2026-04-26 05:08 | 38.75559 | 29.03236 | 36972 ft | 475 kts | 150° |
| 2026-04-26 05:08 | 38.69770 | 29.07310 | 36970 ft | 474 kts | 150° |
| 2026-04-26 05:09 | 38.63983 | 29.11377 | 36971 ft | 474 kts | 150° |
| 2026-04-26 05:09 | 38.58245 | 29.15406 | 36971 ft | 474 kts | 151° |
| 2026-04-26 05:10 | 38.52469 | 29.19449 | 36971 ft | 473 kts | 151° |
| 2026-04-26 05:10 | 38.46692 | 29.23485 | 36973 ft | 473 kts | 151° |
| 2026-04-26 05:11 | 38.40919 | 29.27512 | 36976 ft | 473 kts | 151° |
| 2026-04-26 05:11 | 38.35150 | 29.31529 | 36981 ft | 472 kts | 151° |
| 2026-04-26 05:12 | 38.29395 | 29.35560 | 36988 ft | 472 kts | 151° |
| 2026-04-26 05:12 | 38.23643 | 29.39579 | 36996 ft | 472 kts | 151° |
| 2026-04-26 05:13 | 38.17865 | 29.43595 | 36821 ft | 480 kts | 152° |
| 2026-04-26 05:13 | 38.14899 | 29.45652 | 36118 ft | 489 kts | 151° |
| 2026-04-26 05:13 | 38.11929 | 29.47710 | 35650 ft | 483 kts | 151° |
| 2026-04-26 05:14 | 38.08999 | 29.49739 | 35174 ft | 477 kts | 151° |
| 2026-04-26 05:14 | 38.06106 | 29.51749 | 34713 ft | 471 kts | 151° |
| 2026-04-26 05:14 | 38.03245 | 29.53738 | 34254 ft | 466 kts | 151° |
| 2026-04-26 05:14 | 38.00412 | 29.55696 | 33798 ft | 461 kts | 151° |
| 2026-04-26 05:15 | 37.97614 | 29.57624 | 33340 ft | 456 kts | 150° |
| 2026-04-26 05:15 | 37.94837 | 29.59535 | 32884 ft | 451 kts | 150° |
| 2026-04-26 05:15 | 37.92091 | 29.61421 | 32433 ft | 447 kts | 150° |
| 2026-04-26 05:15 | 37.89364 | 29.63293 | 31980 ft | 444 kts | 150° |
| 2026-04-26 05:16 | 37.86659 | 29.65149 | 31529 ft | 441 kts | 150° |
| 2026-04-26 05:16 | 37.83967 | 29.66994 | 31079 ft | 438 kts | 150° |
| 2026-04-26 05:16 | 37.81298 | 29.68826 | 30630 ft | 435 kts | 149° |
| 2026-04-26 05:16 | 37.78804 | 29.70944 | 30164 ft | 431 kts | 140° |
| 2026-04-26 05:17 | 37.76515 | 29.73420 | 29298 ft | 435 kts | 136° |
| 2026-04-26 05:17 | 37.74343 | 29.76093 | 28381 ft | 435 kts | 133° |
| 2026-04-26 05:17 | 37.72248 | 29.78830 | 27578 ft | 432 kts | 132° |
| 2026-04-26 05:17 | 37.70202 | 29.81589 | 26777 ft | 429 kts | 131° |
| 2026-04-26 05:18 | 37.68182 | 29.84343 | 25976 ft | 426 kts | 132° |
| 2026-04-26 05:18 | 37.66175 | 29.87076 | 25175 ft | 423 kts | 132° |
| 2026-04-26 05:18 | 37.64183 | 29.89788 | 24374 ft | 420 kts | 132° |
| 2026-04-26 05:18 | 37.62203 | 29.92479 | 23574 ft | 417 kts | 132° |
| 2026-04-26 05:19 | 37.60234 | 29.95153 | 22773 ft | 414 kts | 133° |
| 2026-04-26 05:19 | 37.58279 | 29.97806 | 22038 ft | 410 kts | 133° |
| 2026-04-26 05:19 | 37.56354 | 30.00416 | 21437 ft | 403 kts | 133° |
| 2026-04-26 05:19 | 37.54461 | 30.02981 | 20836 ft | 396 kts | 133° |
| 2026-04-26 05:20 | 37.52601 | 30.05499 | 20235 ft | 390 kts | 134° |
| 2026-04-26 05:20 | 37.50764 | 30.07983 | 19634 ft | 384 kts | 134° |
| 2026-04-26 05:20 | 37.48955 | 30.10428 | 19033 ft | 379 kts | 134° |
| 2026-04-26 05:20 | 37.47168 | 30.12841 | 18432 ft | 374 kts | 134° |
| 2026-04-26 05:21 | 37.45401 | 30.15225 | 17831 ft | 370 kts | 134° |
| 2026-04-26 05:21 | 37.43657 | 30.17578 | 17230 ft | 366 kts | 135° |
| 2026-04-26 05:21 | 37.41952 | 30.19874 | 16637 ft | 362 kts | 134° |
| 2026-04-26 05:21 | 37.40247 | 30.22187 | 16036 ft | 358 kts | 134° |
| 2026-04-26 05:22 | 37.38567 | 30.24480 | 15435 ft | 355 kts | 134° |
| 2026-04-26 05:22 | 37.36895 | 30.26744 | 14835 ft | 352 kts | 134° |
| 2026-04-26 05:22 | 37.35235 | 30.28979 | 14234 ft | 348 kts | 134° |
| 2026-04-26 05:22 | 37.33586 | 30.31195 | 13633 ft | 345 kts | 134° |
| 2026-04-26 05:23 | 37.31951 | 30.33386 | 13033 ft | 342 kts | 134° |
| 2026-04-26 05:23 | 37.30331 | 30.35555 | 12549 ft | 336 kts | 134° |
| 2026-04-26 05:23 | 37.28763 | 30.37654 | 12271 ft | 324 kts | 134° |
| 2026-04-26 05:23 | 37.27248 | 30.39680 | 11992 ft | 313 kts | 134° |
| 2026-04-26 05:24 | 37.25785 | 30.41637 | 11712 ft | 302 kts | 134° |
| 2026-04-26 05:24 | 37.24366 | 30.43534 | 11401 ft | 295 kts | 134° |
| 2026-04-26 05:24 | 37.23422 | 30.44796 | 11120 ft | 292 kts | 134° |
| 2026-04-26 05:24 | 37.22040 | 30.46644 | 10682 ft | 289 kts | 134° |
| 2026-04-26 05:25 | 37.20667 | 30.48480 | 10192 ft | 288 kts | 133° |
| 2026-04-26 05:25 | 37.19319 | 30.50284 | 9731 ft | 286 kts | 133° |
| 2026-04-26 05:25 | 37.18027 | 30.52165 | 9245 ft | 285 kts | 124° |
| 2026-04-26 05:25 | 37.17180 | 30.54388 | 8780 ft | 282 kts | 108° |
| 2026-04-26 05:26 | 37.16813 | 30.56787 | 8336 ft | 280 kts | 97° |
| 2026-04-26 05:26 | 37.16731 | 30.59210 | 7909 ft | 277 kts | 91° |
| 2026-04-26 05:26 | 37.16794 | 30.61612 | 7462 ft | 275 kts | 88° |
| 2026-04-26 05:26 | 37.16901 | 30.63994 | 7018 ft | 273 kts | 87° |
| 2026-04-26 05:27 | 37.17021 | 30.66359 | 6593 ft | 270 kts | 88° |
| 2026-04-26 05:27 | 37.17089 | 30.68705 | 6140 ft | 269 kts | 89° |
| 2026-04-26 05:27 | 37.17100 | 30.71046 | 5699 ft | 267 kts | 90° |
| 2026-04-26 05:27 | 37.17000 | 30.73359 | 5264 ft | 265 kts | 99° |
| 2026-04-26 05:28 | 37.16540 | 30.75595 | 4953 ft | 265 kts | 108° |
| 2026-04-26 05:28 | 37.15871 | 30.77743 | 4989 ft | 265 kts | 112° |
| 2026-04-26 05:28 | 37.15089 | 30.79844 | 5014 ft | 267 kts | 115° |
| 2026-04-26 05:28 | 37.14261 | 30.81922 | 5021 ft | 267 kts | 116° |
| 2026-04-26 05:29 | 37.13440 | 30.84007 | 5020 ft | 266 kts | 115° |
| 2026-04-26 05:29 | 37.12640 | 30.86091 | 5018 ft | 265 kts | 115° |
| 2026-04-26 05:29 | 37.11862 | 30.88150 | 5017 ft | 264 kts | 115° |
| 2026-04-26 05:29 | 37.11081 | 30.90234 | 5017 ft | 264 kts | 115° |
| 2026-04-26 05:30 | 37.10301 | 30.92322 | 5017 ft | 265 kts | 115° |
| 2026-04-26 05:30 | 37.09522 | 30.94413 | 5017 ft | 265 kts | 114° |
| 2026-04-26 05:30 | 37.08744 | 30.96503 | 5015 ft | 265 kts | 114° |
| 2026-04-26 05:30 | 37.07965 | 30.98594 | 5015 ft | 265 kts | 114° |
| 2026-04-26 05:31 | 37.07187 | 31.00684 | 5016 ft | 265 kts | 114° |
| 2026-04-26 05:31 | 37.06410 | 31.02774 | 5015 ft | 265 kts | 114° |
| 2026-04-26 05:31 | 37.05613 | 31.04853 | 5012 ft | 265 kts | 119° |
| 2026-04-26 05:31 | 37.04365 | 31.06524 | 4998 ft | 266 kts | 146° |
| 2026-04-26 05:32 | 37.02625 | 31.07268 | 5007 ft | 268 kts | 172° |
| 2026-04-26 05:32 | 37.00782 | 31.06929 | 5012 ft | 272 kts | 198° |
| 2026-04-26 05:32 | 36.99181 | 31.05660 | 5036 ft | 275 kts | 217° |
| 2026-04-26 05:32 | 36.97809 | 31.03971 | 5024 ft | 278 kts | 225° |
| 2026-04-26 05:33 | 36.96554 | 31.02136 | 5019 ft | 278 kts | 228° |
| 2026-04-26 05:33 | 36.95308 | 31.00286 | 5012 ft | 278 kts | 227° |
| 2026-04-26 05:33 | 36.94025 | 30.98483 | 5010 ft | 277 kts | 226° |
| 2026-04-26 05:33 | 36.92710 | 30.96720 | 5008 ft | 277 kts | 225° |
| 2026-04-26 05:34 | 36.91366 | 30.94988 | 5003 ft | 278 kts | 220° |
| 2026-04-26 05:34 | 36.89716 | 30.93795 | 5008 ft | 275 kts | 199° |
| 2026-04-26 05:34 | 36.87866 | 30.93222 | 5010 ft | 274 kts | 189° |
| 2026-04-26 05:34 | 36.85983 | 30.92913 | 5010 ft | 273 kts | 184° |
| 2026-04-26 05:35 | 36.84094 | 30.92782 | 5005 ft | 271 kts | 179° |
| 2026-04-26 05:35 | 36.82236 | 30.92858 | 5009 ft | 271 kts | 178° |
| 2026-04-26 05:35 | 36.80354 | 30.92760 | 5006 ft | 271 kts | 182° |
| 2026-04-26 05:35 | 36.78472 | 30.92542 | 5006 ft | 272 kts | 184° |
| 2026-04-26 05:36 | 36.76597 | 30.92232 | 5006 ft | 272 kts | 187° |
| 2026-04-26 05:36 | 36.74721 | 30.91946 | 5007 ft | 272 kts | 183° |
| 2026-04-26 05:36 | 36.72834 | 30.91766 | 5006 ft | 272 kts | 182° |
| 2026-04-26 05:36 | 36.70948 | 30.91623 | 5006 ft | 271 kts | 181° |
| 2026-04-26 05:37 | 36.69062 | 30.91487 | 5006 ft | 271 kts | 182° |
| 2026-04-26 05:37 | 36.67179 | 30.91307 | 5007 ft | 271 kts | 182° |
| 2026-04-26 05:37 | 36.65332 | 30.90849 | 5007 ft | 273 kts | 201° |
| 2026-04-26 05:37 | 36.63804 | 30.89449 | 5014 ft | 276 kts | 224° |
| 2026-04-26 05:38 | 36.62755 | 30.87472 | 4997 ft | 270 kts | 246° |
| 2026-04-26 05:38 | 36.62519 | 30.85252 | 4995 ft | 254 kts | 274° |
| 2026-04-26 05:38 | 36.63143 | 30.83247 | 5018 ft | 249 kts | 303° |
| 2026-04-26 05:38 | 36.64335 | 30.81704 | 5001 ft | 248 kts | 321° |
| 2026-04-26 05:39 | 36.65826 | 30.80595 | 4824 ft | 249 kts | 334° |
| 2026-04-26 05:39 | 36.67388 | 30.79745 | 4349 ft | 242 kts | 339° |
| 2026-04-26 05:39 | 36.68952 | 30.78979 | 3787 ft | 240 kts | 341° |
| 2026-04-26 05:39 | 36.70535 | 30.78491 | 3411 ft | 228 kts | 355° |
| 2026-04-26 05:40 | 36.72067 | 30.78461 | 3169 ft | 212 kts | 4° |
| 2026-04-26 05:40 | 36.73484 | 30.78638 | 3014 ft | 201 kts | 8° |
| 2026-04-26 05:40 | 36.74833 | 30.78870 | 2757 ft | 189 kts | 9° |
| 2026-04-26 05:40 | 36.76084 | 30.79066 | 2505 ft | 173 kts | 9° |
| 2026-04-26 05:41 | 36.77208 | 30.79227 | 2288 ft | 159 kts | 9° |
| 2026-04-26 05:41 | 36.78292 | 30.79378 | 2082 ft | 154 kts | 8° |
| 2026-04-26 05:41 | 36.79360 | 30.79525 | 1880 ft | 155 kts | 8° |
| 2026-04-26 05:41 | 36.80429 | 30.79671 | 1676 ft | 154 kts | 7° |
| 2026-04-26 05:42 | 36.81493 | 30.79817 | 1470 ft | 153 kts | 7° |
| 2026-04-26 05:42 | 36.82537 | 30.79960 | 1272 ft | 150 kts | 7° |
| 2026-04-26 05:42 | 36.83566 | 30.80101 | 1070 ft | 148 kts | 6° |
| 2026-04-26 05:42 | 36.84594 | 30.80241 | 875 ft | 149 kts | 5° |
| 2026-04-26 05:43 | 36.85623 | 30.80382 | 677 ft | 148 kts | 5° |
| 2026-04-26 05:43 | 36.86646 | 30.80523 | 480 ft | 148 kts | 6° |
| 2026-04-26 05:43 | 36.87667 | 30.80662 | 284 ft | 147 kts | 5° |
| 2026-04-26 05:43 | 36.88657 | 30.80799 | 193 ft | 137 kts | 5° |
| 2026-04-26 05:44 | 36.89465 | 30.80910 | 191 ft | 83 kts | 6° |
| 2026-04-26 05:44 | 36.89820 | 30.80951 | 191 ft | 28 kts | 358° |
| 2026-04-26 05:44 | 36.90000 | 30.80887 | 191 ft | 18 kts | 337° |
| 2026-04-26 05:44 | 36.90097 | 30.80836 | 191 ft | 6 kts | 333° |
| 2026-04-26 05:45 | 36.90111 | 30.80804 | 191 ft | 4 kts | 262° |
| 2026-04-26 05:45 | 36.90059 | 30.80754 | 191 ft | 17 kts | 191° |
| 2026-04-26 05:45 | 36.89930 | 30.80736 | 191 ft | 18 kts | 186° |
| 2026-04-26 05:45 | 36.89806 | 30.80720 | 191 ft | 17 kts | 186° |
| 2026-04-26 05:46 | 36.89689 | 30.80703 | 190 ft | 17 kts | 186° |
| 2026-04-26 05:46 | 36.89599 | 30.80690 | 191 ft | 7 kts | 191° |
| 2026-04-26 05:46 | 36.89564 | 30.80655 | 191 ft | 7 kts | 253° |
| 2026-04-26 05:46 | 36.89570 | 30.80600 | 191 ft | 6 kts | 306° |
| 2026-04-26 05:47 | 36.89609 | 30.80576 | 191 ft | 6 kts | 344° |
| 2026-04-26 05:47 | 36.89651 | 30.80561 | 191 ft | 6 kts | 345° |
| 2026-04-26 05:47 | 36.89680 | 30.80550 | 191 ft | 0 kts | 343° |